Observation data for Van Horn on 12/13/2019      Previous  Date       Current Mesonet Observations  Soil Data  Daily Summary Page  Observations in Plain Language
KVA1 130600Z 28012KT 13/M01 A3017 RMK A01 T01301009  RH  038%=      5-min Rain = 0
KVA1 130601Z 26013KT 13/M01 A3017 RMK A01 T01321008  RH  038%=      5-min Rain = 0
KVA1 130602Z 27012KT 13/M01 A3017 RMK A01 T01311007  RH  039%=      5-min Rain = 0
KVA1 130603Z 25010KT 13/M01 A3017 RMK A01 T01291006  RH  039%=      5-min Rain = 0
KVA1 130604Z 26010KT 13/M01 A3017 RMK A01 T01261005  RH  040%=      5-min Rain = 0
KVA1 130605Z 25011KT 13/M01 A3017 RMK A01 T01251005  RH  041%=      5-min Rain = 0
KVA1 130606Z 26010KT 13/M01 A3017 RMK A01 T01251006  RH  040%=      5-min Rain = 0
KVA1 130607Z 25009KT 13/M00 A3017 RMK A01 T01251004  RH  041%=      5-min Rain = 0
KVA1 130608Z 25005KT 12/M00 A3017 RMK A01 T01221003  RH  042%=      5-min Rain = 0
KVA1 130609Z 25009KT 12/M00 A3017 RMK A01 T01201003  RH  043%=      5-min Rain = 0
KVA1 130610Z 25008KT 12/M00 A3017 RMK A01 T01191003  RH  043%=      5-min Rain = 0
KVA1 130611Z 26008KT 12/M00 A3017 RMK A01 T01191003  RH  043%=      5-min Rain = 0
KVA1 130612Z 25008KT 12/M00 A3017 RMK A01 T01191004  RH  043%=      5-min Rain = 0
KVA1 130613Z 25007KT 12/M00 A3017 RMK A01 T01201003  RH  043%=      5-min Rain = 0
KVA1 130614Z 26007KT 12/M00 A3017 RMK A01 T01191003  RH  043%=      5-min Rain = 0
KVA1 130615Z 24006KT 12/M00 A3017 RMK A01 T01191003  RH  043%=      5-min Rain = 0
KVA1 130616Z 25006KT 12/M00 A3017 RMK A01 T01171002  RH  044%=      5-min Rain = 0
KVA1 130617Z 25007KT 12/M00 A3017 RMK A01 T01161002  RH  044%=      5-min Rain = 0
KVA1 130618Z 25007KT 12/M00 A3017 RMK A01 T01151004  RH  044%=      5-min Rain = 0
KVA1 130619Z 25008KT 12/M00 A3017 RMK A01 T01161004  RH  043%=      5-min Rain = 0
KVA1 130620Z 26007KT 12/M01 A3017 RMK A01 T01181005  RH  043%=      5-min Rain = 0
KVA1 130621Z 25006KT 12/M01 A3017 RMK A01 T01201007  RH  041%=      5-min Rain = 0
KVA1 130622Z 24005KT 12/M01 A3017 RMK A01 T01221005  RH  042%=      5-min Rain = 0
KVA1 130623Z 24003KT 12/M00 A3017 RMK A01 T01201004  RH  042%=      5-min Rain = 0
KVA1 130624Z 22005KT 12/M00 A3017 RMK A01 T01181002  RH  043%=      5-min Rain = 0
KVA1 130625Z 17005KT 11/00 A3017 RMK A01 T01120003  RH  047%=      5-min Rain = 0
KVA1 130626Z 17006KT 10/01 A3017 RMK A01 T01000007  RH  052%=      5-min Rain = 0
KVA1 130627Z 18007KT 09/01 A3017 RMK A01 T00900007  RH  056%=      5-min Rain = 0
KVA1 130628Z 21005KT 08/01 A3017 RMK A01 T00840008  RH  059%=      5-min Rain = 0
KVA1 130629Z 21006KT 08/01 A3017 RMK A01 T00830008  RH  059%=      5-min Rain = 0
KVA1 130630Z 21007KT 08/01 A3017 RMK A01 T00830008  RH  059%=      5-min Rain = 0
KVA1 130631Z 21005KT 08/01 A3017 RMK A01 T00830007  RH  059%=      5-min Rain = 0
KVA1 130632Z 24005KT 08/01 A3017 RMK A01 T00820008  RH  060%=      5-min Rain = 0
KVA1 130633Z 26006KT 09/00 A3017 RMK A01 T00850004  RH  057%=      5-min Rain = 0
KVA1 130634Z 25006KT 10/00 A3017 RMK A01 T009700-0  RH  051%=      5-min Rain = 0
KVA1 130635Z 24008KT 11/M00 A3017 RMK A01 T01061001  RH  048%=      5-min Rain = 0
KVA1 130636Z 24007KT 11/M00 A3017 RMK A01 T01101001  RH  046%=      5-min Rain = 0
KVA1 130637Z 23009KT 11/M00 A3017 RMK A01 T01121003  RH  045%=      5-min Rain = 0
KVA1 130638Z 23008KT 11/M00 A3017 RMK A01 T01141004  RH  044%=      5-min Rain = 0
KVA1 130639Z 24008KT 12/M00 A3016 RMK A01 T01151004  RH  044%=      5-min Rain = 0
KVA1 130640Z 26010KT 12/M01 A3017 RMK A01 T01171006  RH  043%=      5-min Rain = 0
KVA1 130641Z 26011KT 12/M01 A3017 RMK A01 T01211008  RH  041%=      5-min Rain = 0
KVA1 130642Z 25009KT 12/M01 A3017 RMK A01 T01231008  RH  040%=      5-min Rain = 0
KVA1 130643Z 26008KT 12/M01 A3017 RMK A01 T01241007  RH  040%=      5-min Rain = 0
KVA1 130644Z 27013G18KT 13/M01 A3017 RMK A01 T01261011  RH  039%=      5-min Rain = 0
KVA1 130645Z 27011KT 13/M01 A3017 RMK A01 T01311011  RH  037%=      5-min Rain = 0
KVA1 130646Z 28013KT 13/M01 A3017 RMK A01 T01331012  RH  037%=      5-min Rain = 0
KVA1 130647Z 26015KT 13/M01 A3016 RMK A01 T01341012  RH  036%=      5-min Rain = 0
KVA1 130648Z 25013KT 13/M01 A3016 RMK A01 T01311009  RH  038%=      5-min Rain = 0
KVA1 130649Z 25012KT 13/M01 A3016 RMK A01 T01261009  RH  039%=      5-min Rain = 0
KVA1 130650Z 25013KT 12/M01 A3016 RMK A01 T01241007  RH  040%=      5-min Rain = 0
KVA1 130651Z 25014KT 12/M01 A3016 RMK A01 T01231008  RH  040%=      5-min Rain = 0
KVA1 130652Z 25014KT 13/M01 A3015 RMK A01 T01271009  RH  039%=      5-min Rain = 0
KVA1 130653Z 26012KT 13/M01 A3015 RMK A01 T01291009  RH  038%=      5-min Rain = 0
KVA1 130654Z 27018KT 13/M01 A3015 RMK A01 T01301010  RH  038%=      5-min Rain = 0
KVA1 130655Z 27015KT 14/M01 A3015 RMK A01 T01351013  RH  036%=      5-min Rain = 0
KVA1 130656Z 26012KT 14/M01 A3015 RMK A01 T01391012  RH  035%=      5-min Rain = 0
KVA1 130657Z 24010KT 14/M01 A3015 RMK A01 T01361010  RH  037%=      5-min Rain = 0
KVA1 130658Z 24010KT 13/M01 A3015 RMK A01 T01321010  RH  037%=      5-min Rain = 0
KVA1 130659Z 25012KT 13/M01 A3016 RMK A01 T01311010  RH  038%=      5-min Rain = 0
KVA1 130700Z 24014KT 13/M01 A3016 RMK A01 T01291009  RH  038%=      5-min Rain = 0
KVA1 130701Z 26014KT 13/M01 A3016 RMK A01 T01271008  RH  039%=      5-min Rain = 0
KVA1 130702Z 25015KT 13/M01 A3015 RMK A01 T01271009  RH  039%=      5-min Rain = 0
KVA1 130703Z 26014KT 13/M01 A3015 RMK A01 T01291009  RH  038%=      5-min Rain = 0
KVA1 130704Z 26014KT 13/M01 A3015 RMK A01 T01341009  RH  037%=      5-min Rain = 0
KVA1 130705Z 24015G20KT 14/M01 A3015 RMK A01 T01361009  RH  037%=      5-min Rain = 0
KVA1 130706Z 26016KT 13/M01 A3015 RMK A01 T01321009  RH  038%=      5-min Rain = 0
KVA1 130707Z 26013KT 13/M01 A3015 RMK A01 T01331010  RH  037%=      5-min Rain = 0
KVA1 130708Z 27011KT 14/M01 A3015 RMK A01 T01351009  RH  037%=      5-min Rain = 0
KVA1 130709Z 26013KT 14/M01 A3015 RMK A01 T01371010  RH  036%=      5-min Rain = 0
KVA1 130710Z 26011KT 14/M01 A3016 RMK A01 T01351009  RH  037%=      5-min Rain = 0
KVA1 130711Z 27010KT 13/M01 A3016 RMK A01 T01311009  RH  038%=      5-min Rain = 0
KVA1 130712Z 26013KT 13/M01 A3015 RMK A01 T01291009  RH  039%=      5-min Rain = 0
KVA1 130713Z 26014KT 13/M01 A3015 RMK A01 T01311008  RH  038%=      5-min Rain = 0
KVA1 130714Z 26013KT 13/M01 A3015 RMK A01 T01321008  RH  038%=      5-min Rain = 0
KVA1 130715Z 26015KT 13/M01 A3015 RMK A01 T01331008  RH  038%=      5-min Rain = 0
KVA1 130716Z 27014G19KT 13/M01 A3015 RMK A01 T01331008  RH  038%=      5-min Rain = 0
KVA1 130717Z 27017KT 13/M01 A3015 RMK A01 T01341008  RH  038%=      5-min Rain = 0
KVA1 130718Z 27014KT 14/M01 A3015 RMK A01 T01361008  RH  037%=      5-min Rain = 0
KVA1 130719Z 26013KT 14/M01 A3015 RMK A01 T01371008  RH  037%=      5-min Rain = 0
KVA1 130720Z 26014KT 14/M01 A3015 RMK A01 T01361008  RH  037%=      5-min Rain = 0
KVA1 130721Z 27016KT 14/M01 A3015 RMK A01 T01351008  RH  037%=      5-min Rain = 0
KVA1 130722Z 27014KT 14/M01 A3015 RMK A01 T01361008  RH  037%=      5-min Rain = 0
KVA1 130723Z 27013KT 14/M01 A3015 RMK A01 T01371008  RH  037%=      5-min Rain = 0
KVA1 130724Z 27010KT 14/M01 A3015 RMK A01 T01371009  RH  037%=      5-min Rain = 0
KVA1 130725Z 27013KT 14/M01 A3015 RMK A01 T01371008  RH  037%=      5-min Rain = 0
KVA1 130726Z 27013KT 14/M01 A3015 RMK A01 T01351008  RH  037%=      5-min Rain = 0
KVA1 130727Z 27013KT 14/M01 A3015 RMK A01 T01351008  RH  037%=      5-min Rain = 0
KVA1 130728Z 28014KT 13/M01 A3015 RMK A01 T01341007  RH  038%=      5-min Rain = 0
KVA1 130729Z 28014KT 13/M01 A3015 RMK A01 T01341007  RH  038%=      5-min Rain = 0
KVA1 130730Z 27016KT 13/M01 A3014 RMK A01 T01331007  RH  038%=      5-min Rain = 0
KVA1 130731Z 27013KT 13/M01 A3014 RMK A01 T01341006  RH  038%=      5-min Rain = 0
KVA1 130732Z 28015KT 14/M01 A3014 RMK A01 T01361005  RH  038%=      5-min Rain = 0
KVA1 130733Z 27014KT 14/M01 A3014 RMK A01 T01381006  RH  037%=      5-min Rain = 0
KVA1 130734Z 28015KT 14/M01 A3014 RMK A01 T01381005  RH  037%=      5-min Rain = 0
KVA1 130735Z 28015G22KT 14/M01 A3014 RMK A01 T01371006  RH  037%=      5-min Rain = 0
KVA1 130736Z 28016G22KT 14/M01 A3014 RMK A01 T01371006  RH  037%=      5-min Rain = 0
KVA1 130737Z 28016KT 14/M01 A3014 RMK A01 T01381006  RH  037%=      5-min Rain = 0
KVA1 130738Z 28017KT 14/M01 A3014 RMK A01 T01381006  RH  037%=      5-min Rain = 0
KVA1 130739Z 28016KT 14/M01 A3014 RMK A01 T01381006  RH  037%=      5-min Rain = 0
KVA1 130740Z 28018KT 14/M01 A3014 RMK A01 T01381005  RH  037%=      5-min Rain = 0
KVA1 130741Z 28014KT 14/M01 A3014 RMK A01 T01381005  RH  037%=      5-min Rain = 0
KVA1 130742Z 30013KT 14/M01 A3015 RMK A01 T01381005  RH  037%=      5-min Rain = 0
KVA1 130743Z 29011KT 14/M01 A3015 RMK A01 T01381006  RH  037%=      5-min Rain = 0
KVA1 130744Z 28011KT 14/M01 A3015 RMK A01 T01381005  RH  037%=      5-min Rain = 0
KVA1 130745Z 29012KT 14/M01 A3015 RMK A01 T01371005  RH  037%=      5-min Rain = 0
KVA1 130746Z 29013KT 14/M01 A3015 RMK A01 T01371005  RH  038%=      5-min Rain = 0
KVA1 130747Z 29014KT 14/M01 A3015 RMK A01 T01371005  RH  037%=      5-min Rain = 0
KVA1 130748Z 29010KT 14/M01 A3015 RMK A01 T01381005  RH  037%=      5-min Rain = 0
KVA1 130749Z 30013KT 14/M00 A3015 RMK A01 T01381004  RH  037%=      5-min Rain = 0
KVA1 130750Z 31013KT 14/M00 A3015 RMK A01 T01381004  RH  038%=      5-min Rain = 0
KVA1 130751Z 31012KT 14/M00 A3015 RMK A01 T01381004  RH  038%=      5-min Rain = 0
KVA1 130752Z 30008KT 14/M00 A3014 RMK A01 T01381003  RH  038%=      5-min Rain = 0
KVA1 130753Z 32010G16KT 14/M00 A3014 RMK A01 T01381004  RH  038%=      5-min Rain = 0
KVA1 130754Z 32010KT 14/M00 A3014 RMK A01 T01381004  RH  038%=      5-min Rain = 0
KVA1 130755Z 32006KT 14/M00 A3014 RMK A01 T01391004  RH  038%=      5-min Rain = 0
KVA1 130756Z 33013G19KT 14/M00 A3014 RMK A01 T01391004  RH  038%=      5-min Rain = 0
KVA1 130757Z 33015KT 14/M00 A3014 RMK A01 T01391004  RH  038%=      5-min Rain = 0
KVA1 130758Z 31007KT 14/M00 A3014 RMK A01 T01401004  RH  037%=      5-min Rain = 0
KVA1 130759Z 32004KT 14/M00 A3014 RMK A01 T01411004  RH  037%=      5-min Rain = 0
KVA1 130800Z 32004KT 14/M00 A3014 RMK A01 T01411004  RH  037%=      5-min Rain = 0
KVA1 130801Z 00004KT 14/M00 A3014 RMK A01 T01411004  RH  037%=      5-min Rain = 0
KVA1 130802Z 03003KT 14/M01 A3014 RMK A01 T01401005  RH  037%=      5-min Rain = 0
KVA1 130803Z 32003KT 14/M00 A3014 RMK A01 T01401004  RH  037%=      5-min Rain = 0
KVA1 130804Z 29004KT 14/M00 A3014 RMK A01 T01391004  RH  038%=      5-min Rain = 0
KVA1 130805Z 30004KT 14/M00 A3014 RMK A01 T01371004  RH  038%=      5-min Rain = 0
KVA1 130806Z 34007G12KT 14/M00 A3014 RMK A01 T01361004  RH  038%=      5-min Rain = 0
KVA1 130807Z 35009KT 14/M00 A3014 RMK A01 T01351004  RH  038%=      5-min Rain = 0
KVA1 130808Z 32007KT 14/M00 A3014 RMK A01 T01361003  RH  039%=      5-min Rain = 0
KVA1 130809Z 30010KT 14/M00 A3015 RMK A01 T01361002  RH  039%=      5-min Rain = 0
KVA1 130810Z 29006KT 14/M00 A3015 RMK A01 T01371003  RH  038%=      5-min Rain = 0
KVA1 130811Z 29004KT 14/M00 A3015 RMK A01 T01381003  RH  038%=      5-min Rain = 0
KVA1 130812Z 33004KT 14/M00 A3015 RMK A01 T01381003  RH  038%=      5-min Rain = 0
KVA1 130813Z 26002KT 14/M00 A3015 RMK A01 T01381002  RH  038%=      5-min Rain = 0
KVA1 130814Z 31005KT 14/M00 A3015 RMK A01 T01371002  RH  038%=      5-min Rain = 0
KVA1 130815Z 28004KT 13/M00 A3015 RMK A01 T01331002  RH  039%=      5-min Rain = 0
KVA1 130816Z 23003KT 13/M00 A3015 RMK A01 T01291002  RH  040%=      5-min Rain = 0
KVA1 130817Z 28002KT 13/M00 A3015 RMK A01 T01271002  RH  041%=      5-min Rain = 0
KVA1 130818Z 19001KT 13/M00 A3015 RMK A01 T01251003  RH  041%=      5-min Rain = 0
KVA1 130819Z 27003KT 13/M00 A3015 RMK A01 T01251002  RH  041%=      5-min Rain = 0
KVA1 130820Z 27006KT 13/00 A3016 RMK A01 T012500-0  RH  042%=      5-min Rain = 0
KVA1 130821Z 28003KT 12/00 A3016 RMK A01 T012200-0  RH  043%=      5-min Rain = 0
KVA1 130822Z 25005KT 12/00 A3016 RMK A01 T011900-0  RH  044%=      5-min Rain = 0
KVA1 130823Z 25003KT 12/00 A3016 RMK A01 T01170000  RH  045%=      5-min Rain = 0
KVA1 130824Z 26003KT 12/00 A3016 RMK A01 T01150000  RH  045%=      5-min Rain = 0
KVA1 130825Z 24004KT 12/00 A3016 RMK A01 T01150001  RH  046%=      5-min Rain = 0
KVA1 130826Z 25003KT 12/00 A3016 RMK A01 T01150002  RH  045%=      5-min Rain = 0
KVA1 130827Z 23005KT 12/00 A3015 RMK A01 T01160002  RH  046%=      5-min Rain = 0
KVA1 130828Z 25003KT 11/00 A3015 RMK A01 T01140003  RH  046%=      5-min Rain = 0
KVA1 130829Z 22003KT 11/00 A3015 RMK A01 T01140001  RH  046%=      5-min Rain = 0
KVA1 130830Z 23004KT 12/00 A3015 RMK A01 T01150003  RH  046%=      5-min Rain = 0
KVA1 130831Z 24003KT 11/00 A3015 RMK A01 T01130003  RH  047%=      5-min Rain = 0
KVA1 130832Z 23004KT 11/00 A3015 RMK A01 T01130003  RH  047%=      5-min Rain = 0
KVA1 130833Z 25003KT 11/00 A3015 RMK A01 T01120003  RH  047%=      5-min Rain = 0
KVA1 130834Z 30002KT 11/00 A3015 RMK A01 T01120000  RH  046%=      5-min Rain = 0
KVA1 130835Z 30003KT 12/00 A3015 RMK A01 T01160001  RH  045%=      5-min Rain = 0
KVA1 130836Z 21005KT 12/00 A3015 RMK A01 T01190003  RH  045%=      5-min Rain = 0
KVA1 130837Z 21005KT 12/00 A3015 RMK A01 T01150004  RH  046%=      5-min Rain = 0
KVA1 130838Z 21005KT 11/00 A3015 RMK A01 T01120003  RH  047%=      5-min Rain = 0
KVA1 130839Z 22005KT 11/00 A3015 RMK A01 T01120004  RH  047%=      5-min Rain = 0
KVA1 130840Z 21007KT 11/00 A3015 RMK A01 T01140004  RH  047%=      5-min Rain = 0
KVA1 130841Z 23006KT 11/00 A3015 RMK A01 T01130003  RH  047%=      5-min Rain = 0
KVA1 130842Z 24004KT 11/00 A3015 RMK A01 T01130003  RH  047%=      5-min Rain = 0
KVA1 130843Z 23005KT 12/00 A3015 RMK A01 T01150004  RH  046%=      5-min Rain = 0
KVA1 130844Z 20005KT 12/00 A3015 RMK A01 T01150004  RH  046%=      5-min Rain = 0
KVA1 130845Z 23004KT 11/01 A3015 RMK A01 T01140005  RH  047%=      5-min Rain = 0
KVA1 130846Z 25004KT 11/01 A3015 RMK A01 T01110005  RH  048%=      5-min Rain = 0
KVA1 130847Z 23005KT 11/00 A3015 RMK A01 T01090004  RH  048%=      5-min Rain = 0
KVA1 130848Z 22005KT 11/00 A3015 RMK A01 T01070004  RH  049%=      5-min Rain = 0
KVA1 130849Z 24005KT 11/01 A3015 RMK A01 T01080005  RH  049%=      5-min Rain = 0
KVA1 130850Z 25004KT 11/01 A3015 RMK A01 T01090005  RH  049%=      5-min Rain = 0
KVA1 130851Z 26005KT 11/01 A3015 RMK A01 T01090005  RH  048%=      5-min Rain = 0
KVA1 130852Z 26004KT 11/00 A3015 RMK A01 T01090004  RH  048%=      5-min Rain = 0
KVA1 130853Z 24006KT 11/01 A3015 RMK A01 T01080005  RH  049%=      5-min Rain = 0
KVA1 130854Z 24007KT 11/01 A3015 RMK A01 T01080005  RH  049%=      5-min Rain = 0
KVA1 130855Z 25008KT 11/01 A3015 RMK A01 T01080005  RH  049%=      5-min Rain = 0
KVA1 130856Z 25006KT 11/01 A3015 RMK A01 T01080005  RH  049%=      5-min Rain = 0
KVA1 130857Z 25007KT 11/01 A3015 RMK A01 T01080006  RH  049%=      5-min Rain = 0
KVA1 130858Z 26008KT 11/01 A3015 RMK A01 T01070005  RH  049%=      5-min Rain = 0
KVA1 130859Z 26006KT 11/01 A3015 RMK A01 T01090005  RH  049%=      5-min Rain = 0
KVA1 130900Z 26007KT 11/01 A3015 RMK A01 T01100006  RH  049%=      5-min Rain = 0
KVA1 130901Z 26007KT 11/01 A3015 RMK A01 T01100006  RH  049%=      5-min Rain = 0
KVA1 130902Z 26006KT 11/01 A3015 RMK A01 T01080005  RH  049%=      5-min Rain = 0
KVA1 130903Z 26007KT 11/01 A3015 RMK A01 T01070005  RH  049%=      5-min Rain = 0
KVA1 130904Z 27006KT 11/01 A3015 RMK A01 T01060005  RH  050%=      5-min Rain = 0
KVA1 130905Z 27006KT 11/01 A3015 RMK A01 T01050005  RH  050%=      5-min Rain = 0
KVA1 130906Z 27006KT 10/01 A3015 RMK A01 T01030005  RH  050%=      5-min Rain = 0
KVA1 130907Z 27006KT 10/01 A3015 RMK A01 T01020005  RH  051%=      5-min Rain = 0
KVA1 130908Z 26006KT 10/01 A3015 RMK A01 T01000005  RH  051%=      5-min Rain = 0
KVA1 130909Z 27006KT 10/01 A3015 RMK A01 T00990005  RH  052%=      5-min Rain = 0
KVA1 130910Z 27006KT 10/01 A3015 RMK A01 T00970005  RH  053%=      5-min Rain = 0
KVA1 130911Z 27006KT 10/01 A3015 RMK A01 T00950005  RH  053%=      5-min Rain = 0
KVA1 130912Z 27005KT 10/01 A3015 RMK A01 T00950005  RH  054%=      5-min Rain = 0
KVA1 130913Z 27006KT 09/01 A3015 RMK A01 T00940006  RH  054%=      5-min Rain = 0
KVA1 130914Z 27006KT 09/01 A3015 RMK A01 T00930006  RH  054%=      5-min Rain = 0
KVA1 130915Z 27006KT 09/01 A3015 RMK A01 T00920006  RH  055%=      5-min Rain = 0
KVA1 130916Z 27006KT 09/01 A3015 RMK A01 T00920006  RH  055%=      5-min Rain = 0
KVA1 130917Z 26007KT 09/01 A3015 RMK A01 T00920006  RH  055%=      5-min Rain = 0
KVA1 130918Z 26008KT 09/01 A3015 RMK A01 T00910006  RH  055%=      5-min Rain = 0
KVA1 130919Z 26007KT 09/01 A3015 RMK A01 T00900006  RH  056%=      5-min Rain = 0
KVA1 130920Z 26007KT 09/01 A3015 RMK A01 T00890006  RH  056%=      5-min Rain = 0
KVA1 130921Z 26008KT 09/01 A3015 RMK A01 T00880006  RH  057%=      5-min Rain = 0
KVA1 130922Z 26008KT 09/01 A3015 RMK A01 T00870007  RH  057%=      5-min Rain = 0
KVA1 130923Z 26008KT 09/01 A3015 RMK A01 T00870007  RH  057%=      5-min Rain = 0
KVA1 130924Z 25008KT 09/01 A3015 RMK A01 T00870008  RH  058%=      5-min Rain = 0
KVA1 130925Z 25008KT 09/01 A3015 RMK A01 T00870008  RH  058%=      5-min Rain = 0
KVA1 130926Z 25008KT 09/01 A3015 RMK A01 T00880008  RH  058%=      5-min Rain = 0
KVA1 130927Z 25008KT 09/01 A3015 RMK A01 T00890009  RH  057%=      5-min Rain = 0
KVA1 130928Z 25008KT 09/01 A3015 RMK A01 T00890009  RH  057%=      5-min Rain = 0
KVA1 130929Z 26008KT 09/01 A3015 RMK A01 T00900009  RH  057%=      5-min Rain = 0
KVA1 130930Z 25007KT 09/01 A3015 RMK A01 T00910009  RH  056%=      5-min Rain = 0
KVA1 130931Z 25007KT 09/01 A3015 RMK A01 T00930009  RH  056%=      5-min Rain = 0
KVA1 130932Z 26008KT 09/01 A3016 RMK A01 T00930009  RH  056%=      5-min Rain = 0
KVA1 130933Z 26007KT 09/01 A3016 RMK A01 T00930009  RH  056%=      5-min Rain = 0
KVA1 130934Z 25008KT 09/01 A3016 RMK A01 T00940009  RH  055%=      5-min Rain = 0
KVA1 130935Z 26007KT 09/01 A3016 RMK A01 T00940008  RH  055%=      5-min Rain = 0
KVA1 130936Z 25007KT 10/01 A3015 RMK A01 T00960009  RH  054%=      5-min Rain = 0
KVA1 130937Z 25007KT 10/01 A3015 RMK A01 T00970009  RH  054%=      5-min Rain = 0
KVA1 130938Z 25007KT 10/01 A3015 RMK A01 T00970009  RH  054%=      5-min Rain = 0
KVA1 130939Z 26007KT 10/01 A3015 RMK A01 T00970008  RH  054%=      5-min Rain = 0
KVA1 130940Z 26007KT 10/01 A3015 RMK A01 T00960009  RH  054%=      5-min Rain = 0
KVA1 130941Z 27007KT 10/01 A3015 RMK A01 T00950008  RH  055%=      5-min Rain = 0
KVA1 130942Z 27007KT 09/01 A3015 RMK A01 T00940009  RH  055%=      5-min Rain = 0
KVA1 130943Z 26007KT 09/01 A3015 RMK A01 T00930009  RH  056%=      5-min Rain = 0
KVA1 130944Z 26008KT 09/01 A3015 RMK A01 T00930009  RH  056%=      5-min Rain = 0
KVA1 130945Z 26008KT 09/01 A3015 RMK A01 T00930009  RH  055%=      5-min Rain = 0
KVA1 130946Z 25008KT 09/01 A3015 RMK A01 T00940009  RH  055%=      5-min Rain = 0
KVA1 130947Z 25009KT 09/01 A3015 RMK A01 T00940009  RH  055%=      5-min Rain = 0
KVA1 130948Z 25009KT 09/01 A3015 RMK A01 T00940009  RH  055%=      5-min Rain = 0
KVA1 130949Z 25010KT 09/01 A3015 RMK A01 T00940009  RH  055%=      5-min Rain = 0
KVA1 130950Z 25010KT 09/01 A3015 RMK A01 T00940009  RH  055%=      5-min Rain = 0
KVA1 130951Z 25010KT 10/01 A3015 RMK A01 T00960009  RH  055%=      5-min Rain = 0
KVA1 130952Z 25010KT 10/01 A3015 RMK A01 T00970009  RH  054%=      5-min Rain = 0
KVA1 130953Z 26010KT 10/01 A3015 RMK A01 T00970009  RH  054%=      5-min Rain = 0
KVA1 130954Z 26010KT 10/01 A3015 RMK A01 T00980009  RH  054%=      5-min Rain = 0
KVA1 130955Z 27010KT 10/01 A3015 RMK A01 T00990009  RH  054%=      5-min Rain = 0
KVA1 130956Z 27010KT 10/01 A3015 RMK A01 T00990009  RH  054%=      5-min Rain = 0
KVA1 130957Z 26009KT 10/01 A3015 RMK A01 T01000009  RH  053%=      5-min Rain = 0
KVA1 130958Z 27010KT 10/01 A3015 RMK A01 T00990009  RH  054%=      5-min Rain = 0
KVA1 130959Z 27010KT 10/01 A3015 RMK A01 T00980009  RH  054%=      5-min Rain = 0
KVA1 131000Z 26010KT 10/01 A3015 RMK A01 T00990010  RH  054%=      5-min Rain = 0
KVA1 131001Z 27011KT 10/01 A3015 RMK A01 T00990010  RH  054%=      5-min Rain = 0
KVA1 131002Z 26011KT 10/01 A3015 RMK A01 T00990009  RH  054%=      5-min Rain = 0
KVA1 131003Z 26012KT 10/01 A3015 RMK A01 T00990010  RH  054%=      5-min Rain = 0
KVA1 131004Z 26012KT 10/01 A3014 RMK A01 T01010010  RH  053%=      5-min Rain = 0
KVA1 131005Z 26011KT 10/01 A3014 RMK A01 T01020010  RH  053%=      5-min Rain = 0
KVA1 131006Z 26011KT 10/01 A3015 RMK A01 T01020010  RH  053%=      5-min Rain = 0
KVA1 131007Z 26010KT 10/01 A3015 RMK A01 T01010010  RH  053%=      5-min Rain = 0
KVA1 131008Z 27011KT 10/01 A3015 RMK A01 T01010010  RH  053%=      5-min Rain = 0
KVA1 131009Z 27009KT 10/01 A3015 RMK A01 T01010010  RH  053%=      5-min Rain = 0
KVA1 131010Z 27009KT 10/01 A3015 RMK A01 T01000010  RH  054%=      5-min Rain = 0
KVA1 131011Z 27009KT 10/01 A3015 RMK A01 T00990010  RH  054%=      5-min Rain = 0
KVA1 131012Z 27009KT 10/01 A3015 RMK A01 T00980010  RH  054%=      5-min Rain = 0
KVA1 131013Z 27009KT 10/01 A3015 RMK A01 T00980010  RH  055%=      5-min Rain = 0
KVA1 131014Z 27009KT 10/01 A3015 RMK A01 T00980010  RH  055%=      5-min Rain = 0
KVA1 131015Z 27009KT 10/01 A3015 RMK A01 T00990011  RH  054%=      5-min Rain = 0
KVA1 131016Z 27009KT 10/01 A3015 RMK A01 T00990011  RH  054%=      5-min Rain = 0
KVA1 131017Z 27009KT 10/01 A3015 RMK A01 T01000011  RH  054%=      5-min Rain = 0
KVA1 131018Z 27009KT 10/01 A3015 RMK A01 T01000011  RH  054%=      5-min Rain = 0
KVA1 131019Z 27008KT 10/01 A3015 RMK A01 T01000011  RH  054%=      5-min Rain = 0
KVA1 131020Z 27009KT 10/01 A3015 RMK A01 T01000010  RH  054%=      5-min Rain = 0
KVA1 131021Z 27007KT 10/01 A3015 RMK A01 T01010011  RH  054%=      5-min Rain = 0
KVA1 131022Z 27008KT 10/01 A3015 RMK A01 T01010011  RH  054%=      5-min Rain = 0
KVA1 131023Z 27008KT 10/01 A3015 RMK A01 T01000011  RH  054%=      5-min Rain = 0
KVA1 131024Z 27008KT 10/01 A3015 RMK A01 T01000011  RH  054%=      5-min Rain = 0
KVA1 131025Z 26008KT 10/01 A3015 RMK A01 T00990011  RH  055%=      5-min Rain = 0
KVA1 131026Z 25007KT 10/01 A3014 RMK A01 T00980012  RH  055%=      5-min Rain = 0
KVA1 131027Z 25008KT 10/01 A3014 RMK A01 T00980012  RH  055%=      5-min Rain = 0
KVA1 131028Z 26009KT 10/01 A3014 RMK A01 T00990012  RH  054%=      5-min Rain = 0
KVA1 131029Z 26008KT 10/01 A3014 RMK A01 T01000011  RH  054%=      5-min Rain = 0
KVA1 131030Z 25008KT 10/01 A3014 RMK A01 T01010011  RH  054%=      5-min Rain = 0
KVA1 131031Z 26008KT 10/01 A3014 RMK A01 T01010012  RH  054%=      5-min Rain = 0
KVA1 131032Z 25009KT 10/01 A3014 RMK A01 T01000012  RH  054%=      5-min Rain = 0
KVA1 131033Z 26009KT 10/01 A3014 RMK A01 T01000012  RH  054%=      5-min Rain = 0
KVA1 131034Z 26009KT 10/01 A3013 RMK A01 T00990012  RH  054%=      5-min Rain = 0
KVA1 131035Z 26009KT 10/01 A3013 RMK A01 T00990012  RH  055%=      5-min Rain = 0
KVA1 131036Z 25009KT 10/01 A3013 RMK A01 T00980012  RH  055%=      5-min Rain = 0
KVA1 131037Z 25009KT 10/01 A3013 RMK A01 T00980012  RH  055%=      5-min Rain = 0
KVA1 131038Z 25010KT 10/01 A3013 RMK A01 T00970012  RH  055%=      5-min Rain = 0
KVA1 131039Z 26009KT 10/01 A3013 RMK A01 T00960012  RH  056%=      5-min Rain = 0
KVA1 131040Z 26009KT 10/01 A3013 RMK A01 T00960012  RH  056%=      5-min Rain = 0
KVA1 131041Z 25009KT 10/01 A3013 RMK A01 T00960012  RH  056%=      5-min Rain = 0
KVA1 131042Z 26009KT 10/01 A3013 RMK A01 T00960012  RH  056%=      5-min Rain = 0
KVA1 131043Z 25008KT 10/01 A3013 RMK A01 T00990013  RH  055%=      5-min Rain = 0
KVA1 131044Z 25008KT 10/01 A3013 RMK A01 T01000013  RH  054%=      5-min Rain = 0
KVA1 131045Z 25008KT 10/01 A3013 RMK A01 T00990012  RH  054%=      5-min Rain = 0
KVA1 131046Z 26008KT 10/01 A3013 RMK A01 T00970011  RH  055%=      5-min Rain = 0
KVA1 131047Z 26009KT 10/01 A3013 RMK A01 T00950011  RH  056%=      5-min Rain = 0
KVA1 131048Z 26009KT 09/01 A3014 RMK A01 T00940012  RH  056%=      5-min Rain = 0
KVA1 131049Z 26008KT 10/01 A3014 RMK A01 T00950012  RH  056%=      5-min Rain = 0
KVA1 131050Z 27008KT 09/01 A3014 RMK A01 T00940012  RH  056%=      5-min Rain = 0
KVA1 131051Z 27008KT 10/01 A3014 RMK A01 T00950012  RH  056%=      5-min Rain = 0
KVA1 131052Z 27008KT 10/01 A3014 RMK A01 T00950012  RH  056%=      5-min Rain = 0
KVA1 131053Z 27007KT 10/01 A3014 RMK A01 T00960013  RH  056%=      5-min Rain = 0
KVA1 131054Z 28007KT 10/01 A3015 RMK A01 T00970013  RH  056%=      5-min Rain = 0
KVA1 131055Z 28006KT 10/01 A3015 RMK A01 T00970013  RH  056%=      5-min Rain = 0
KVA1 131056Z 28006KT 10/01 A3015 RMK A01 T00970013  RH  056%=      5-min Rain = 0
KVA1 131057Z 27006KT 10/01 A3015 RMK A01 T00960013  RH  056%=      5-min Rain = 0
KVA1 131058Z 27005KT 10/01 A3015 RMK A01 T00950013  RH  057%=      5-min Rain = 0
KVA1 131059Z 26005KT 09/01 A3015 RMK A01 T00930014  RH  057%=      5-min Rain = 0
KVA1 131100Z 26005KT 09/01 A3015 RMK A01 T00900013  RH  058%=      5-min Rain = 0
KVA1 131101Z 25005KT 09/01 A3015 RMK A01 T00870012  RH  059%=      5-min Rain = 0
KVA1 131102Z 25006KT 08/01 A3015 RMK A01 T00840012  RH  061%=      5-min Rain = 0
KVA1 131103Z 25006KT 08/01 A3015 RMK A01 T00810012  RH  062%=      5-min Rain = 0
KVA1 131104Z 25006KT 08/01 A3014 RMK A01 T00790012  RH  063%=      5-min Rain = 0
KVA1 131105Z 25006KT 08/01 A3014 RMK A01 T00770013  RH  064%=      5-min Rain = 0
KVA1 131106Z 24007KT 08/01 A3014 RMK A01 T00750013  RH  065%=      5-min Rain = 0
KVA1 131107Z 24007KT 07/01 A3014 RMK A01 T00740013  RH  065%=      5-min Rain = 0
KVA1 131108Z 23007KT 07/01 A3014 RMK A01 T00730013  RH  065%=      5-min Rain = 0
KVA1 131109Z 24008KT 07/01 A3014 RMK A01 T00730013  RH  066%=      5-min Rain = 0
KVA1 131110Z 23007KT 07/01 A3014 RMK A01 T00730013  RH  066%=      5-min Rain = 0
KVA1 131111Z 23007KT 07/01 A3014 RMK A01 T00730013  RH  066%=      5-min Rain = 0
KVA1 131112Z 23007KT 07/01 A3014 RMK A01 T00720013  RH  066%=      5-min Rain = 0
KVA1 131113Z 23008KT 07/01 A3014 RMK A01 T00720014  RH  066%=      5-min Rain = 0
KVA1 131114Z 23008KT 07/01 A3014 RMK A01 T00720013  RH  066%=      5-min Rain = 0
KVA1 131115Z 24008KT 07/01 A3014 RMK A01 T00720014  RH  066%=      5-min Rain = 0
KVA1 131116Z 24008KT 07/01 A3014 RMK A01 T00710013  RH  067%=      5-min Rain = 0
KVA1 131117Z 25008KT 07/01 A3014 RMK A01 T00710014  RH  067%=      5-min Rain = 0
KVA1 131118Z 24008KT 07/01 A3014 RMK A01 T00710013  RH  067%=      5-min Rain = 0
KVA1 131119Z 24007KT 07/01 A3014 RMK A01 T00710013  RH  067%=      5-min Rain = 0
KVA1 131120Z 23008KT 07/01 A3014 RMK A01 T00710014  RH  067%=      5-min Rain = 0
KVA1 131121Z 23008KT 07/01 A3014 RMK A01 T00690012  RH  067%=      5-min Rain = 0
KVA1 131122Z 23009KT 07/01 A3014 RMK A01 T00660012  RH  068%=      5-min Rain = 0
KVA1 131123Z 24009KT 06/01 A3014 RMK A01 T00640012  RH  069%=      5-min Rain = 0
KVA1 131124Z 25008KT 06/01 A3014 RMK A01 T00630012  RH  070%=      5-min Rain = 0
KVA1 131125Z 24008KT 07/01 A3014 RMK A01 T00650014  RH  070%=      5-min Rain = 0
KVA1 131126Z 25008KT 07/01 A3014 RMK A01 T00650013  RH  069%=      5-min Rain = 0
KVA1 131127Z 24007KT 07/01 A3014 RMK A01 T00650013  RH  069%=      5-min Rain = 0
KVA1 131128Z 25008KT 07/01 A3014 RMK A01 T00670014  RH  069%=      5-min Rain = 0
KVA1 131129Z 24008KT 07/01 A3014 RMK A01 T00660013  RH  069%=      5-min Rain = 0
KVA1 131130Z 24008KT 07/01 A3015 RMK A01 T00660013  RH  069%=      5-min Rain = 0
KVA1 131131Z 25008KT 07/01 A3015 RMK A01 T00650013  RH  069%=      5-min Rain = 0
KVA1 131132Z 25007KT 07/01 A3015 RMK A01 T00660014  RH  069%=      5-min Rain = 0
KVA1 131133Z 26006KT 07/02 A3015 RMK A01 T00710016  RH  068%=      5-min Rain = 0
KVA1 131134Z 26006KT 08/02 A3015 RMK A01 T00750016  RH  066%=      5-min Rain = 0
KVA1 131135Z 25006KT 08/01 A3015 RMK A01 T00770014  RH  065%=      5-min Rain = 0
KVA1 131136Z 25007KT 08/01 A3015 RMK A01 T00780014  RH  064%=      5-min Rain = 0
KVA1 131137Z 25006KT 08/01 A3015 RMK A01 T00770013  RH  064%=      5-min Rain = 0
KVA1 131138Z 25006KT 08/01 A3015 RMK A01 T00750012  RH  064%=      5-min Rain = 0
KVA1 131139Z 25006KT 07/01 A3015 RMK A01 T00730012  RH  065%=      5-min Rain = 0
KVA1 131140Z 26005KT 07/01 A3015 RMK A01 T00710012  RH  066%=      5-min Rain = 0
KVA1 131141Z 25006KT 07/01 A3015 RMK A01 T00700012  RH  067%=      5-min Rain = 0
KVA1 131142Z 25006KT 07/01 A3015 RMK A01 T00690013  RH  067%=      5-min Rain = 0
KVA1 131143Z 25005KT 07/01 A3015 RMK A01 T00700013  RH  067%=      5-min Rain = 0
KVA1 131144Z 25006KT 07/01 A3015 RMK A01 T00700013  RH  067%=      5-min Rain = 0
KVA1 131145Z 26007KT 07/01 A3015 RMK A01 T00700012  RH  067%=      5-min Rain = 0
KVA1 131146Z 27007KT 07/01 A3015 RMK A01 T00710014  RH  067%=      5-min Rain = 0
KVA1 131147Z 25005KT 08/02 A3015 RMK A01 T00840018  RH  063%=      5-min Rain = 0
KVA1 131148Z 26005KT 10/02 A3015 RMK A01 T00950018  RH  059%=      5-min Rain = 0
KVA1 131149Z 26005KT 10/02 A3015 RMK A01 T00950015  RH  057%=      5-min Rain = 0
KVA1 131150Z 25006KT 09/01 A3015 RMK A01 T00900012  RH  058%=      5-min Rain = 0
KVA1 131151Z 26007KT 09/01 A3016 RMK A01 T00870011  RH  059%=      5-min Rain = 0
KVA1 131152Z 26006KT 08/01 A3016 RMK A01 T00830011  RH  061%=      5-min Rain = 0
KVA1 131153Z 28004G9KT 09/01 A3016 RMK A01 T00860014  RH  060%=      5-min Rain = 0
KVA1 131154Z 25007KT 10/02 A3016 RMK A01 T00950016  RH  058%=      5-min Rain = 0
KVA1 131155Z 26007KT 09/01 A3016 RMK A01 T00940013  RH  057%=      5-min Rain = 0
KVA1 131156Z 26007KT 09/01 A3016 RMK A01 T00910012  RH  058%=      5-min Rain = 0
KVA1 131157Z 24007KT 09/01 A3016 RMK A01 T00930014  RH  058%=      5-min Rain = 0
KVA1 131158Z 25010KT 09/01 A3016 RMK A01 T00940013  RH  057%=      5-min Rain = 0
KVA1 131159Z 24009KT 09/01 A3015 RMK A01 T00900012  RH  058%=      5-min Rain = 0
KVA1 131200Z 25008KT 09/01 A3015 RMK A01 T00890014  RH  059%=      5-min Rain = 0
KVA1 131201Z 27007KT 09/01 A3016 RMK A01 T00890014  RH  059%=      5-min Rain = 0
KVA1 131202Z 28006KT 09/01 A3016 RMK A01 T00910014  RH  059%=      5-min Rain = 0
KVA1 131203Z 26006KT 10/02 A3016 RMK A01 T00950015  RH  057%=      5-min Rain = 0
KVA1 131204Z 27004KT 10/02 A3016 RMK A01 T00970015  RH  057%=      5-min Rain = 0
KVA1 131205Z 26004KT 10/01 A3016 RMK A01 T00960014  RH  057%=      5-min Rain = 0
KVA1 131206Z 02007KT 09/01 A3016 RMK A01 T00940013  RH  057%=      5-min Rain = 0
KVA1 131207Z 03005KT 09/01 A3016 RMK A01 T00860007  RH  058%=      5-min Rain = 0
KVA1 131208Z 02004KT 08/01 A3016 RMK A01 T00780007  RH  061%=      5-min Rain = 0
KVA1 131209Z 03004KT 07/01 A3016 RMK A01 T00730008  RH  063%=      5-min Rain = 0
KVA1 131210Z 04004KT 07/01 A3016 RMK A01 T00690008  RH  065%=      5-min Rain = 0
KVA1 131211Z 04005KT 07/01 A3016 RMK A01 T00660009  RH  067%=      5-min Rain = 0
KVA1 131212Z 05005KT 06/01 A3016 RMK A01 T00630009  RH  068%=      5-min Rain = 0
KVA1 131213Z 04004KT 06/01 A3016 RMK A01 T00610009  RH  069%=      5-min Rain = 0
KVA1 131214Z 05004KT 06/01 A3015 RMK A01 T00600010  RH  070%=      5-min Rain = 0
KVA1 131215Z 05002KT 06/01 A3015 RMK A01 T00590009  RH  071%=      5-min Rain = 0
KVA1 131216Z 07001KT 06/01 A3016 RMK A01 T00580009  RH  071%=      5-min Rain = 0
KVA1 131217Z 14002KT 06/01 A3015 RMK A01 T00570009  RH  071%=      5-min Rain = 0
KVA1 131218Z 14003KT 06/01 A3015 RMK A01 T00560010  RH  072%=      5-min Rain = 0
KVA1 131219Z 17003KT 06/01 A3016 RMK A01 T00550011  RH  073%=      5-min Rain = 0
KVA1 131220Z 19002KT 05/01 A3016 RMK A01 T00530011  RH  074%=      5-min Rain = 0
KVA1 131221Z 15001KT 05/01 A3015 RMK A01 T00520010  RH  075%=      5-min Rain = 0
KVA1 131222Z 11002KT 05/01 A3015 RMK A01 T00510010  RH  075%=      5-min Rain = 0
KVA1 131223Z 08001KT 05/01 A3015 RMK A01 T00510009  RH  074%=      5-min Rain = 0
KVA1 131224Z 07001KT 05/01 A3015 RMK A01 T00510009  RH  074%=      5-min Rain = 0
KVA1 131225Z 00000KT 05/01 A3015 RMK A01 T00510009  RH  074%=      5-min Rain = 0
KVA1 131226Z 11000KT 05/01 A3015 RMK A01 T00500009  RH  075%=      5-min Rain = 0
KVA1 131227Z 11001KT 05/01 A3015 RMK A01 T00490009  RH  076%=      5-min Rain = 0
KVA1 131228Z 16002KT 05/01 A3015 RMK A01 T00480009  RH  076%=      5-min Rain = 0
KVA1 131229Z 18004KT 05/01 A3015 RMK A01 T00470010  RH  077%=      5-min Rain = 0
KVA1 131230Z 17005KT 05/01 A3015 RMK A01 T00460011  RH  078%=      5-min Rain = 0
KVA1 131231Z 17005KT 05/01 A3015 RMK A01 T00450011  RH  079%=      5-min Rain = 0
KVA1 131232Z 18005KT 04/01 A3015 RMK A01 T00430011  RH  079%=      5-min Rain = 0
KVA1 131233Z 18006KT 04/01 A3015 RMK A01 T00430011  RH  080%=      5-min Rain = 0
KVA1 131234Z 19006KT 04/01 A3015 RMK A01 T00430012  RH  080%=      5-min Rain = 0
KVA1 131235Z 19007KT 04/01 A3015 RMK A01 T00430011  RH  080%=      5-min Rain = 0
KVA1 131236Z 20008KT 04/01 A3015 RMK A01 T00430010  RH  079%=      5-min Rain = 0
KVA1 131237Z 21006KT 04/01 A3015 RMK A01 T00430010  RH  079%=      5-min Rain = 0
KVA1 131238Z 21006KT 04/01 A3015 RMK A01 T00430010  RH  079%=      5-min Rain = 0
KVA1 131239Z 21007KT 04/01 A3015 RMK A01 T00420009  RH  079%=      5-min Rain = 0
KVA1 131240Z 21007KT 04/01 A3015 RMK A01 T00420009  RH  079%=      5-min Rain = 0
KVA1 131241Z 21006KT 04/01 A3016 RMK A01 T00420009  RH  079%=      5-min Rain = 0
KVA1 131242Z 21007KT 04/01 A3016 RMK A01 T00420009  RH  079%=      5-min Rain = 0
KVA1 131243Z 21007KT 04/01 A3016 RMK A01 T00420009  RH  079%=      5-min Rain = 0
KVA1 131244Z 21007KT 04/01 A3016 RMK A01 T00410008  RH  079%=      5-min Rain = 0
KVA1 131245Z 21007KT 04/01 A3016 RMK A01 T00410008  RH  079%=      5-min Rain = 0
KVA1 131246Z 21008KT 04/01 A3016 RMK A01 T00410008  RH  079%=      5-min Rain = 0
KVA1 131247Z 21009KT 04/01 A3016 RMK A01 T00400008  RH  079%=      5-min Rain = 0
KVA1 131248Z 22009KT 04/01 A3015 RMK A01 T00400008  RH  079%=      5-min Rain = 0
KVA1 131249Z 22008KT 04/01 A3015 RMK A01 T00400008  RH  079%=      5-min Rain = 0
KVA1 131250Z 22007KT 04/01 A3016 RMK A01 T00400008  RH  080%=      5-min Rain = 0
KVA1 131251Z 23008KT 04/01 A3016 RMK A01 T00400008  RH  080%=      5-min Rain = 0
KVA1 131252Z 22008KT 04/01 A3016 RMK A01 T00400008  RH  079%=      5-min Rain = 0
KVA1 131253Z 23007KT 04/01 A3016 RMK A01 T00410008  RH  079%=      5-min Rain = 0
KVA1 131254Z 23008KT 04/01 A3016 RMK A01 T00420008  RH  079%=      5-min Rain = 0
KVA1 131255Z 23009KT 04/01 A3016 RMK A01 T00430008  RH  078%=      5-min Rain = 0
KVA1 131256Z 23010KT 04/01 A3016 RMK A01 T00430008  RH  078%=      5-min Rain = 0
KVA1 131257Z 23010KT 04/01 A3016 RMK A01 T00430008  RH  078%=      5-min Rain = 0
KVA1 131258Z 23010KT 04/01 A3016 RMK A01 T00430008  RH  078%=      5-min Rain = 0
KVA1 131259Z 23009KT 04/01 A3016 RMK A01 T00430008  RH  078%=      5-min Rain = 0
KVA1 131300Z 23009KT 04/01 A3016 RMK A01 T00430008  RH  078%=      5-min Rain = 0
KVA1 131301Z 23009KT 04/01 A3016 RMK A01 T00420008  RH  078%=      5-min Rain = 0
KVA1 131302Z 23009KT 04/01 A3016 RMK A01 T00420008  RH  078%=      5-min Rain = 0
KVA1 131303Z 23009KT 04/01 A3016 RMK A01 T00420008  RH  078%=      5-min Rain = 0
KVA1 131304Z 24008KT 04/01 A3016 RMK A01 T00420008  RH  079%=      5-min Rain = 0
KVA1 131305Z 23008KT 04/01 A3016 RMK A01 T00410007  RH  079%=      5-min Rain = 0
KVA1 131306Z 23008KT 04/01 A3016 RMK A01 T00410008  RH  079%=      5-min Rain = 0
KVA1 131307Z 23008KT 04/01 A3016 RMK A01 T00410007  RH  079%=      5-min Rain = 0
KVA1 131308Z 23008KT 04/01 A3016 RMK A01 T00400007  RH  079%=      5-min Rain = 0
KVA1 131309Z 23009KT 04/01 A3015 RMK A01 T00400007  RH  079%=      5-min Rain = 0
KVA1 131310Z 23008KT 04/01 A3015 RMK A01 T00400008  RH  080%=      5-min Rain = 0
KVA1 131311Z 23009KT 04/01 A3015 RMK A01 T00400008  RH  080%=      5-min Rain = 0
KVA1 131312Z 23008KT 04/01 A3015 RMK A01 T00400008  RH  080%=      5-min Rain = 0
KVA1 131313Z 23009KT 04/01 A3015 RMK A01 T00400008  RH  080%=      5-min Rain = 0
KVA1 131314Z 23009KT 04/01 A3015 RMK A01 T00400008  RH  080%=      5-min Rain = 0
KVA1 131315Z 23009KT 04/01 A3015 RMK A01 T00400008  RH  080%=      5-min Rain = 0
KVA1 131316Z 23008KT 04/01 A3015 RMK A01 T00400008  RH  080%=      5-min Rain = 0
KVA1 131317Z 23008KT 04/01 A3016 RMK A01 T00400009  RH  080%=      5-min Rain = 0
KVA1 131318Z 23008KT 04/01 A3016 RMK A01 T00400009  RH  080%=      5-min Rain = 0
KVA1 131319Z 22008KT 04/01 A3016 RMK A01 T00400009  RH  080%=      5-min Rain = 0
KVA1 131320Z 22009KT 04/01 A3016 RMK A01 T00400009  RH  080%=      5-min Rain = 0
KVA1 131321Z 22009KT 04/01 A3015 RMK A01 T00400009  RH  080%=      5-min Rain = 0
KVA1 131322Z 21009KT 04/01 A3015 RMK A01 T00400009  RH  080%=      5-min Rain = 0
KVA1 131323Z 21009KT 04/01 A3015 RMK A01 T00390009  RH  081%=      5-min Rain = 0
KVA1 131324Z 21010KT 04/01 A3015 RMK A01 T00390009  RH  081%=      5-min Rain = 0
KVA1 131325Z 22009KT 04/01 A3015 RMK A01 T00390009  RH  081%=      5-min Rain = 0
KVA1 131326Z 22009KT 04/01 A3016 RMK A01 T00390008  RH  081%=      5-min Rain = 0
KVA1 131327Z 22009KT 04/01 A3016 RMK A01 T00390008  RH  081%=      5-min Rain = 0
KVA1 131328Z 22010KT 04/01 A3016 RMK A01 T00390008  RH  080%=      5-min Rain = 0
KVA1 131329Z 22010KT 04/01 A3016 RMK A01 T00400008  RH  080%=      5-min Rain = 0
KVA1 131330Z 22010KT 04/01 A3016 RMK A01 T00410008  RH  079%=      5-min Rain = 0
KVA1 131331Z 22011KT 04/01 A3016 RMK A01 T00420008  RH  079%=      5-min Rain = 0
KVA1 131332Z 22010KT 04/01 A3016 RMK A01 T00430008  RH  078%=      5-min Rain = 0
KVA1 131333Z 22009KT 04/01 A3016 RMK A01 T00440008  RH  077%=      5-min Rain = 0
KVA1 131334Z 22010KT 05/01 A3016 RMK A01 T00450008  RH  077%=      5-min Rain = 0
KVA1 131335Z 22010KT 05/01 A3016 RMK A01 T00460008  RH  076%=      5-min Rain = 0
KVA1 131336Z 22010KT 05/01 A3016 RMK A01 T00470007  RH  075%=      5-min Rain = 0
KVA1 131337Z 22009KT 05/01 A3016 RMK A01 T00480008  RH  075%=      5-min Rain = 0
KVA1 131338Z 22009KT 05/01 A3016 RMK A01 T00490008  RH  074%=      5-min Rain = 0
KVA1 131339Z 22010KT 05/01 A3016 RMK A01 T00500007  RH  074%=      5-min Rain = 0
KVA1 131340Z 22009KT 05/01 A3016 RMK A01 T00500007  RH  074%=      5-min Rain = 0
KVA1 131341Z 22008KT 05/01 A3016 RMK A01 T00510007  RH  073%=      5-min Rain = 0
KVA1 131342Z 22009KT 05/01 A3016 RMK A01 T00510007  RH  073%=      5-min Rain = 0
KVA1 131343Z 22009KT 05/01 A3016 RMK A01 T00510007  RH  073%=      5-min Rain = 0
KVA1 131344Z 22009KT 05/01 A3016 RMK A01 T00520007  RH  073%=      5-min Rain = 0
KVA1 131345Z 22009KT 05/01 A3016 RMK A01 T00530007  RH  072%=      5-min Rain = 0
KVA1 131346Z 21010KT 05/01 A3016 RMK A01 T00540007  RH  072%=      5-min Rain = 0
KVA1 131347Z 22010KT 05/01 A3016 RMK A01 T00540007  RH  072%=      5-min Rain = 0
KVA1 131348Z 22009KT 05/01 A3016 RMK A01 T00540007  RH  072%=      5-min Rain = 0
KVA1 131349Z 22009KT 05/01 A3016 RMK A01 T00540007  RH  072%=      5-min Rain = 0
KVA1 131350Z 22010KT 05/01 A3016 RMK A01 T00540007  RH  072%=      5-min Rain = 0
KVA1 131351Z 22009KT 06/01 A3016 RMK A01 T00550007  RH  071%=      5-min Rain = 0
KVA1 131352Z 22009KT 06/01 A3016 RMK A01 T00550007  RH  071%=      5-min Rain = 0
KVA1 131353Z 22011KT 06/01 A3016 RMK A01 T00550007  RH  072%=      5-min Rain = 0
KVA1 131354Z 22012KT 05/01 A3016 RMK A01 T00540007  RH  072%=      5-min Rain = 0
KVA1 131355Z 22012KT 05/01 A3016 RMK A01 T00540007  RH  072%=      5-min Rain = 0
KVA1 131356Z 22011KT 06/01 A3016 RMK A01 T00550007  RH  071%=      5-min Rain = 0
KVA1 131357Z 22012KT 06/01 A3016 RMK A01 T00550007  RH  071%=      5-min Rain = 0
KVA1 131358Z 23012KT 06/01 A3016 RMK A01 T00550007  RH  071%=      5-min Rain = 0
KVA1 131359Z 23011KT 06/01 A3016 RMK A01 T00550007  RH  071%=      5-min Rain = 0
KVA1 131400Z 23010KT 06/01 A3016 RMK A01 T00550007  RH  071%=      5-min Rain = 0
KVA1 131401Z 23010KT 06/01 A3016 RMK A01 T00550007  RH  071%=      5-min Rain = 0
KVA1 131402Z 22010KT 06/01 A3016 RMK A01 T00550006  RH  071%=      5-min Rain = 0
KVA1 131403Z 22010KT 05/01 A3016 RMK A01 T00530006  RH  072%=      5-min Rain = 0
KVA1 131404Z 21011KT 05/01 A3016 RMK A01 T00510005  RH  072%=      5-min Rain = 0
KVA1 131405Z 22011KT 05/00 A3016 RMK A01 T00470004  RH  074%=      5-min Rain = 0
KVA1 131406Z 21010KT 04/00 A3016 RMK A01 T00440004  RH  076%=      5-min Rain = 0
KVA1 131407Z 22012KT 04/00 A3016 RMK A01 T00400003  RH  077%=      5-min Rain = 0
KVA1 131408Z 22012KT 04/00 A3017 RMK A01 T00380002  RH  078%=      5-min Rain = 0
KVA1 131409Z 22011KT 04/00 A3017 RMK A01 T00360002  RH  078%=      5-min Rain = 0
KVA1 131410Z 22011KT 04/00 A3017 RMK A01 T00360002  RH  078%=      5-min Rain = 0
KVA1 131411Z 22010KT 04/00 A3017 RMK A01 T00360002  RH  078%=      5-min Rain = 0
KVA1 131412Z 22010KT 04/00 A3017 RMK A01 T00360002  RH  078%=      5-min Rain = 0
KVA1 131413Z 22010KT 04/00 A3017 RMK A01 T00360001  RH  078%=      5-min Rain = 0
KVA1 131414Z 23010KT 04/00 A3018 RMK A01 T00360002  RH  078%=      5-min Rain = 0
KVA1 131415Z 23010KT 04/00 A3018 RMK A01 T00360002  RH  078%=      5-min Rain = 0
KVA1 131416Z 22009KT 04/00 A3018 RMK A01 T00360001  RH  078%=      5-min Rain = 0
KVA1 131417Z 22010KT 04/00 A3018 RMK A01 T00360001  RH  078%=      5-min Rain = 0
KVA1 131418Z 22009KT 04/00 A3018 RMK A01 T00370002  RH  078%=      5-min Rain = 0
KVA1 131419Z 22009KT 04/00 A3018 RMK A01 T00370001  RH  078%=      5-min Rain = 0
KVA1 131420Z 22010KT 04/00 A3018 RMK A01 T00370002  RH  077%=      5-min Rain = 0
KVA1 131421Z 22010KT 04/00 A3018 RMK A01 T00380002  RH  077%=      5-min Rain = 0
KVA1 131422Z 22010KT 04/00 A3019 RMK A01 T00380002  RH  077%=      5-min Rain = 0
KVA1 131423Z 22009KT 04/00 A3019 RMK A01 T00380002  RH  077%=      5-min Rain = 0
KVA1 131424Z 22008KT 04/00 A3019 RMK A01 T00390002  RH  077%=      5-min Rain = 0
KVA1 131425Z 22008KT 04/00 A3019 RMK A01 T00390003  RH  077%=      5-min Rain = 0
KVA1 131426Z 22009KT 04/00 A3019 RMK A01 T00400004  RH  077%=      5-min Rain = 0
KVA1 131427Z 22009KT 04/00 A302 RMK A01 T00410004  RH  077%=      5-min Rain = 0
KVA1 131428Z 21009KT 04/00 A302 RMK A01 T00410004  RH  077%=      5-min Rain = 0
KVA1 131429Z 21010KT 04/00 A302 RMK A01 T00410004  RH  077%=      5-min Rain = 0
KVA1 131430Z 20010KT 04/00 A302 RMK A01 T00420004  RH  076%=      5-min Rain = 0
KVA1 131431Z 21008KT 04/01 A302 RMK A01 T00420005  RH  076%=      5-min Rain = 0
KVA1 131432Z 21009KT 04/01 A302 RMK A01 T00430005  RH  076%=      5-min Rain = 0
KVA1 131433Z 20009KT 04/01 A302 RMK A01 T00430005  RH  076%=      5-min Rain = 0
KVA1 131434Z 20009KT 04/01 A302 RMK A01 T00440005  RH  076%=      5-min Rain = 0
KVA1 131435Z 20009KT 05/01 A302 RMK A01 T00450005  RH  075%=      5-min Rain = 0
KVA1 131436Z 20009KT 05/01 A302 RMK A01 T00450005  RH  075%=      5-min Rain = 0
KVA1 131437Z 20010KT 05/00 A302 RMK A01 T00460004  RH  074%=      5-min Rain = 0
KVA1 131438Z 20009KT 05/00 A302 RMK A01 T00470004  RH  074%=      5-min Rain = 0
KVA1 131439Z 20008KT 05/01 A3021 RMK A01 T00470005  RH  074%=      5-min Rain = 0
KVA1 131440Z 20009KT 05/01 A3021 RMK A01 T00480006  RH  074%=      5-min Rain = 0
KVA1 131441Z 20009KT 05/01 A3021 RMK A01 T00490005  RH  073%=      5-min Rain = 0
KVA1 131442Z 20009KT 05/01 A3021 RMK A01 T00500006  RH  073%=      5-min Rain = 0
KVA1 131443Z 20009KT 05/01 A302 RMK A01 T00500005  RH  073%=      5-min Rain = 0
KVA1 131444Z 20009KT 05/01 A302 RMK A01 T00510006  RH  073%=      5-min Rain = 0
KVA1 131445Z 20009KT 05/01 A302 RMK A01 T00520006  RH  072%=      5-min Rain = 0
KVA1 131446Z 20009KT 05/01 A302 RMK A01 T00520006  RH  072%=      5-min Rain = 0
KVA1 131447Z 20010KT 05/01 A302 RMK A01 T00530006  RH  072%=      5-min Rain = 0
KVA1 131448Z 20010KT 05/01 A302 RMK A01 T00540006  RH  071%=      5-min Rain = 0
KVA1 131449Z 20009KT 06/01 A302 RMK A01 T00550007  RH  071%=      5-min Rain = 0
KVA1 131450Z 21009KT 06/01 A302 RMK A01 T00560008  RH  071%=      5-min Rain = 0
KVA1 131451Z 21009KT 06/01 A302 RMK A01 T00570008  RH  071%=      5-min Rain = 0
KVA1 131452Z 21010KT 06/01 A302 RMK A01 T00570008  RH  071%=      5-min Rain = 0
KVA1 131453Z 20009KT 06/01 A302 RMK A01 T00570007  RH  070%=      5-min Rain = 0
KVA1 131454Z 21010KT 06/01 A302 RMK A01 T00580008  RH  070%=      5-min Rain = 0
KVA1 131455Z 21009KT 06/01 A302 RMK A01 T00580008  RH  070%=      5-min Rain = 0
KVA1 131456Z 21008KT 06/01 A302 RMK A01 T00590010  RH  070%=      5-min Rain = 0
KVA1 131457Z 21010KT 06/01 A302 RMK A01 T00600010  RH  070%=      5-min Rain = 0
KVA1 131458Z 21009KT 06/01 A302 RMK A01 T00610010  RH  070%=      5-min Rain = 0
KVA1 131459Z 21008KT 06/01 A302 RMK A01 T00610010  RH  070%=      5-min Rain = 0
KVA1 131500Z 21009KT 06/01 A3019 RMK A01 T00630011  RH  070%=      5-min Rain = 0
KVA1 131501Z 21009KT 06/01 A3019 RMK A01 T00630011  RH  069%=      5-min Rain = 0
KVA1 131502Z 21009KT 06/01 A3019 RMK A01 T00640011  RH  069%=      5-min Rain = 0
KVA1 131503Z 21010KT 07/01 A3019 RMK A01 T00650011  RH  068%=      5-min Rain = 0
KVA1 131504Z 21010KT 07/01 A3019 RMK A01 T00650011  RH  068%=      5-min Rain = 0
KVA1 131505Z 21008KT 07/01 A3019 RMK A01 T00660011  RH  068%=      5-min Rain = 0
KVA1 131506Z 21010KT 07/01 A3019 RMK A01 T00680013  RH  068%=      5-min Rain = 0
KVA1 131507Z 21009KT 07/01 A3019 RMK A01 T00690012  RH  067%=      5-min Rain = 0
KVA1 131508Z 22007KT 07/01 A3019 RMK A01 T00690012  RH  067%=      5-min Rain = 0
KVA1 131509Z 21008KT 07/01 A3019 RMK A01 T00700014  RH  067%=      5-min Rain = 0
KVA1 131510Z 22008KT 07/01 A3019 RMK A01 T00710014  RH  067%=      5-min Rain = 0
KVA1 131511Z 21008KT 07/01 A3019 RMK A01 T00720014  RH  067%=      5-min Rain = 0
KVA1 131512Z 21008KT 07/01 A3018 RMK A01 T00720014  RH  067%=      5-min Rain = 0
KVA1 131513Z 21009KT 07/01 A3018 RMK A01 T00720014  RH  066%=      5-min Rain = 0
KVA1 131514Z 21008KT 07/01 A3018 RMK A01 T00730014  RH  066%=      5-min Rain = 0
KVA1 131515Z 21008KT 07/02 A3018 RMK A01 T00740015  RH  066%=      5-min Rain = 0
KVA1 131516Z 21010KT 07/02 A3018 RMK A01 T00740015  RH  066%=      5-min Rain = 0
KVA1 131517Z 21010KT 07/01 A3018 RMK A01 T00740014  RH  066%=      5-min Rain = 0
KVA1 131518Z 21009KT 08/02 A3018 RMK A01 T00750015  RH  066%=      5-min Rain = 0
KVA1 131519Z 21009KT 08/02 A3019 RMK A01 T00750016  RH  066%=      5-min Rain = 0
KVA1 131520Z 21007KT 08/02 A3019 RMK A01 T00770017  RH  066%=      5-min Rain = 0
KVA1 131521Z 21007KT 08/02 A3019 RMK A01 T00780018  RH  066%=      5-min Rain = 0
KVA1 131522Z 21010KT 08/02 A3019 RMK A01 T00790017  RH  065%=      5-min Rain = 0
KVA1 131523Z 21009KT 08/02 A3019 RMK A01 T00790016  RH  064%=      5-min Rain = 0
KVA1 131524Z 22009KT 08/02 A302 RMK A01 T00790016  RH  064%=      5-min Rain = 0
KVA1 131525Z 22009KT 08/02 A302 RMK A01 T00790016  RH  064%=      5-min Rain = 0
KVA1 131526Z 23010KT 08/02 A302 RMK A01 T00790016  RH  064%=      5-min Rain = 0
KVA1 131527Z 22009KT 08/02 A302 RMK A01 T00800016  RH  064%=      5-min Rain = 0
KVA1 131528Z 22009KT 08/02 A302 RMK A01 T00810016  RH  064%=      5-min Rain = 0
KVA1 131529Z 22009KT 08/02 A302 RMK A01 T00810015  RH  063%=      5-min Rain = 0
KVA1 131530Z 22009KT 08/02 A302 RMK A01 T00820016  RH  063%=      5-min Rain = 0
KVA1 131531Z 21009KT 08/02 A302 RMK A01 T00820015  RH  063%=      5-min Rain = 0
KVA1 131532Z 21010KT 08/02 A302 RMK A01 T00820015  RH  063%=      5-min Rain = 0
KVA1 131533Z 21009KT 08/02 A302 RMK A01 T00820015  RH  063%=      5-min Rain = 0
KVA1 131534Z 21008KT 08/02 A302 RMK A01 T00830016  RH  063%=      5-min Rain = 0
KVA1 131535Z 21009KT 08/02 A302 RMK A01 T00840017  RH  063%=      5-min Rain = 0
KVA1 131536Z 21010KT 09/02 A302 RMK A01 T00850017  RH  062%=      5-min Rain = 0
KVA1 131537Z 21010KT 09/02 A302 RMK A01 T00850016  RH  062%=      5-min Rain = 0
KVA1 131538Z 21010KT 09/02 A302 RMK A01 T00860017  RH  062%=      5-min Rain = 0
KVA1 131539Z 21008KT 09/02 A302 RMK A01 T00870018  RH  062%=      5-min Rain = 0
KVA1 131540Z 21009KT 09/02 A302 RMK A01 T00880019  RH  062%=      5-min Rain = 0
KVA1 131541Z 21009KT 09/02 A302 RMK A01 T00890019  RH  061%=      5-min Rain = 0
KVA1 131542Z 21009KT 09/02 A302 RMK A01 T00890018  RH  061%=      5-min Rain = 0
KVA1 131543Z 21007KT 09/02 A302 RMK A01 T00900019  RH  061%=      5-min Rain = 0
KVA1 131544Z 20006KT 09/02 A3019 RMK A01 T00910020  RH  061%=      5-min Rain = 0
KVA1 131545Z 20008KT 09/02 A3019 RMK A01 T00930022  RH  061%=      5-min Rain = 0
KVA1 131546Z 20010KT 09/02 A3019 RMK A01 T00940021  RH  060%=      5-min Rain = 0
KVA1 131547Z 20008KT 09/02 A302 RMK A01 T00940020  RH  060%=      5-min Rain = 0
KVA1 131548Z 20006KT 10/02 A302 RMK A01 T00950021  RH  060%=      5-min Rain = 0
KVA1 131549Z 20007KT 10/02 A302 RMK A01 T00960023  RH  060%=      5-min Rain = 0
KVA1 131550Z 20007KT 10/02 A302 RMK A01 T00980023  RH  060%=      5-min Rain = 0
KVA1 131551Z 20007KT 10/02 A302 RMK A01 T00990022  RH  059%=      5-min Rain = 0
KVA1 131552Z 20007KT 10/02 A302 RMK A01 T00990023  RH  059%=      5-min Rain = 0
KVA1 131553Z 20006KT 10/02 A302 RMK A01 T01000024  RH  059%=      5-min Rain = 0
KVA1 131554Z 20005KT 10/03 A302 RMK A01 T01010025  RH  059%=      5-min Rain = 0
KVA1 131555Z 20005KT 10/03 A302 RMK A01 T01030026  RH  059%=      5-min Rain = 0
KVA1 131556Z 20005KT 11/03 A302 RMK A01 T01050027  RH  059%=      5-min Rain = 0
KVA1 131557Z 19006KT 11/03 A302 RMK A01 T01060026  RH  057%=      5-min Rain = 0
KVA1 131558Z 20005KT 11/03 A3021 RMK A01 T01060026  RH  058%=      5-min Rain = 0
KVA1 131559Z 20005KT 11/03 A3021 RMK A01 T01070026  RH  058%=      5-min Rain = 0
KVA1 131600Z 19006KT 11/03 A3021 RMK A01 T01080026  RH  057%=      5-min Rain = 0
KVA1 131601Z 19006KT 11/03 A3021 RMK A01 T01090026  RH  056%=      5-min Rain = 0
KVA1 131602Z 18006KT 11/03 A3021 RMK A01 T01090026  RH  056%=      5-min Rain = 0
KVA1 131603Z 18007KT 11/03 A302 RMK A01 T01100026  RH  056%=      5-min Rain = 0
KVA1 131604Z 18007KT 11/03 A302 RMK A01 T01100026  RH  056%=      5-min Rain = 0
KVA1 131605Z 19007KT 11/03 A302 RMK A01 T01110027  RH  056%=      5-min Rain = 0
KVA1 131606Z 20007KT 11/03 A302 RMK A01 T01130025  RH  055%=      5-min Rain = 0
KVA1 131607Z 19008KT 11/03 A302 RMK A01 T01140026  RH  055%=      5-min Rain = 0
KVA1 131608Z 19008KT 12/03 A302 RMK A01 T01150027  RH  055%=      5-min Rain = 0
KVA1 131609Z 18007KT 12/03 A302 RMK A01 T01150028  RH  055%=      5-min Rain = 0
KVA1 131610Z 19007KT 12/03 A302 RMK A01 T01150028  RH  055%=      5-min Rain = 0
KVA1 131611Z 19007KT 12/03 A302 RMK A01 T01170026  RH  054%=      5-min Rain = 0
KVA1 131612Z 19009KT 12/02 A302 RMK A01 T01200023  RH  051%=      5-min Rain = 0
KVA1 131613Z 20008KT 12/02 A302 RMK A01 T01230024  RH  051%=      5-min Rain = 0
KVA1 131614Z 19011KT 12/02 A302 RMK A01 T01240024  RH  050%=      5-min Rain = 0
KVA1 131615Z 20011KT 12/02 A302 RMK A01 T01240023  RH  050%=      5-min Rain = 0
KVA1 131616Z 20007KT 12/03 A302 RMK A01 T01230025  RH  051%=      5-min Rain = 0
KVA1 131617Z 18007KT 12/03 A302 RMK A01 T01230025  RH  051%=      5-min Rain = 0
KVA1 131618Z 19006KT 12/03 A302 RMK A01 T01230027  RH  052%=      5-min Rain = 0
KVA1 131619Z 20009KT 12/02 A302 RMK A01 T01240024  RH  050%=      5-min Rain = 0
KVA1 131620Z 18011KT 13/02 A302 RMK A01 T01270021  RH  048%=      5-min Rain = 0
KVA1 131621Z 18009KT 13/02 A302 RMK A01 T01280018  RH  047%=      5-min Rain = 0
KVA1 131622Z 18008KT 13/02 A302 RMK A01 T01300018  RH  046%=      5-min Rain = 0
KVA1 131623Z 18011KT 13/02 A302 RMK A01 T01320021  RH  047%=      5-min Rain = 0
KVA1 131624Z 15005KT 13/02 A302 RMK A01 T01320016  RH  045%=      5-min Rain = 0
KVA1 131625Z 17009KT 13/02 A302 RMK A01 T01330019  RH  046%=      5-min Rain = 0
KVA1 131626Z 17006G12KT 14/02 A302 RMK A01 T01350018  RH  045%=      5-min Rain = 0
KVA1 131627Z 17012G17KT 14/02 A302 RMK A01 T01360017  RH  044%=      5-min Rain = 0
KVA1 131628Z 17012KT 14/02 A302 RMK A01 T01370019  RH  045%=      5-min Rain = 0
KVA1 131629Z 16007KT 14/02 A302 RMK A01 T01370019  RH  045%=      5-min Rain = 0
KVA1 131630Z 16008KT 14/02 A302 RMK A01 T01380020  RH  045%=      5-min Rain = 0
KVA1 131631Z 16008KT 14/02 A302 RMK A01 T01380023  RH  046%=      5-min Rain = 0
KVA1 131632Z 16009KT 14/03 A302 RMK A01 T01390025  RH  046%=      5-min Rain = 0
KVA1 131633Z 16008KT 14/03 A302 RMK A01 T01390029  RH  047%=      5-min Rain = 0
KVA1 131634Z 17009KT 14/03 A302 RMK A01 T01390028  RH  047%=      5-min Rain = 0
KVA1 131635Z 17010KT 14/03 A302 RMK A01 T01400027  RH  047%=      5-min Rain = 0
KVA1 131636Z 16008KT 14/03 A302 RMK A01 T01400025  RH  046%=      5-min Rain = 0
KVA1 131637Z 17008KT 14/03 A302 RMK A01 T01410026  RH  046%=      5-min Rain = 0
KVA1 131638Z 17009KT 14/03 A3019 RMK A01 T01410027  RH  046%=      5-min Rain = 0
KVA1 131639Z 18008KT 14/03 A3019 RMK A01 T01430027  RH  046%=      5-min Rain = 0
KVA1 131640Z 19009KT 14/03 A3019 RMK A01 T01440027  RH  045%=      5-min Rain = 0
KVA1 131641Z 19010KT 14/02 A3019 RMK A01 T01440024  RH  044%=      5-min Rain = 0
KVA1 131642Z 18010KT 14/02 A3019 RMK A01 T01440024  RH  044%=      5-min Rain = 0
KVA1 131643Z 19011KT 14/02 A3019 RMK A01 T01440024  RH  044%=      5-min Rain = 0
KVA1 131644Z 20010KT 14/02 A3019 RMK A01 T01430022  RH  044%=      5-min Rain = 0
KVA1 131645Z 20010KT 14/02 A3019 RMK A01 T01420020  RH  044%=      5-min Rain = 0
KVA1 131646Z 18008KT 14/02 A3019 RMK A01 T01400021  RH  044%=      5-min Rain = 0
KVA1 131647Z 19010KT 14/02 A3019 RMK A01 T01410021  RH  044%=      5-min Rain = 0
KVA1 131648Z 18009KT 14/02 A3019 RMK A01 T01420020  RH  044%=      5-min Rain = 0
KVA1 131649Z 19009KT 14/02 A3019 RMK A01 T01420020  RH  044%=      5-min Rain = 0
KVA1 131650Z 18008KT 14/02 A3019 RMK A01 T01400018  RH  044%=      5-min Rain = 0
KVA1 131651Z 18008KT 14/02 A3019 RMK A01 T01400020  RH  044%=      5-min Rain = 0
KVA1 131652Z 18006KT 14/02 A3019 RMK A01 T01410020  RH  044%=      5-min Rain = 0
KVA1 131653Z 18007KT 14/02 A3019 RMK A01 T01430022  RH  044%=      5-min Rain = 0
KVA1 131654Z 20007KT 14/02 A3019 RMK A01 T01440021  RH  043%=      5-min Rain = 0
KVA1 131655Z 21008KT 14/02 A3019 RMK A01 T01440022  RH  043%=      5-min Rain = 0
KVA1 131656Z 20008KT 15/02 A3019 RMK A01 T01450024  RH  044%=      5-min Rain = 0
KVA1 131657Z 20009KT 15/02 A3018 RMK A01 T01450024  RH  044%=      5-min Rain = 0
KVA1 131658Z 20010KT 15/02 A3018 RMK A01 T01450023  RH  044%=      5-min Rain = 0
KVA1 131659Z 20007KT 14/02 A3019 RMK A01 T01440024  RH  044%=      5-min Rain = 0
KVA1 131700Z 21010KT 15/03 A3019 RMK A01 T01450025  RH  044%=      5-min Rain = 0
KVA1 131701Z 19009KT 15/02 A3019 RMK A01 T01450024  RH  044%=      5-min Rain = 0
KVA1 131702Z 19009KT 15/02 A3018 RMK A01 T01450024  RH  044%=      5-min Rain = 0
KVA1 131703Z 19009KT 15/03 A3018 RMK A01 T01450025  RH  044%=      5-min Rain = 0
KVA1 131704Z 21007KT 15/03 A3018 RMK A01 T01460027  RH  045%=      5-min Rain = 0
KVA1 131705Z 21008KT 15/03 A3018 RMK A01 T01480026  RH  044%=      5-min Rain = 0
KVA1 131706Z 21009G15KT 15/03 A3018 RMK A01 T01480026  RH  044%=      5-min Rain = 0
KVA1 131707Z 20011KT 15/02 A3018 RMK A01 T01480023  RH  043%=      5-min Rain = 0
KVA1 131708Z 21010KT 15/02 A3018 RMK A01 T01480023  RH  043%=      5-min Rain = 0
KVA1 131709Z 21009KT 15/02 A3018 RMK A01 T01480023  RH  043%=      5-min Rain = 0
KVA1 131710Z 21010KT 15/02 A3018 RMK A01 T01490022  RH  042%=      5-min Rain = 0
KVA1 131711Z 21009KT 15/02 A3018 RMK A01 T01490023  RH  043%=      5-min Rain = 0
KVA1 131712Z 21009KT 15/03 A3018 RMK A01 T01500026  RH  043%=      5-min Rain = 0
KVA1 131713Z 22011KT 15/03 A3018 RMK A01 T01510027  RH  043%=      5-min Rain = 0
KVA1 131714Z 22009KT 15/02 A3018 RMK A01 T01520023  RH  042%=      5-min Rain = 0
KVA1 131715Z 23008KT 15/02 A3018 RMK A01 T01520024  RH  042%=      5-min Rain = 0
KVA1 131716Z 21010KT 15/02 A3018 RMK A01 T01520024  RH  042%=      5-min Rain = 0
KVA1 131717Z 21010KT 15/02 A3018 RMK A01 T01520024  RH  042%=      5-min Rain = 0
KVA1 131718Z 21007KT 15/02 A3018 RMK A01 T01530021  RH  041%=      5-min Rain = 0
KVA1 131719Z 21009KT 15/02 A3018 RMK A01 T01520023  RH  042%=      5-min Rain = 0
KVA1 131720Z 23007KT 15/02 A3018 RMK A01 T01530023  RH  042%=      5-min Rain = 0
KVA1 131721Z 23006KT 15/03 A3019 RMK A01 T01540025  RH  042%=      5-min Rain = 0
KVA1 131722Z 21008KT 16/02 A3019 RMK A01 T01550024  RH  041%=      5-min Rain = 0
KVA1 131723Z 21009KT 16/02 A3019 RMK A01 T01560023  RH  041%=      5-min Rain = 0
KVA1 131724Z 22007KT 16/02 A3019 RMK A01 T01570023  RH  041%=      5-min Rain = 0
KVA1 131725Z 22008G13KT 16/03 A3019 RMK A01 T01580025  RH  041%=      5-min Rain = 0
KVA1 131726Z 23011KT 16/02 A3019 RMK A01 T01580021  RH  040%=      5-min Rain = 0
KVA1 131727Z 22008KT 16/02 A3019 RMK A01 T01590021  RH  039%=      5-min Rain = 0
KVA1 131728Z 23011KT 16/02 A3019 RMK A01 T01600021  RH  039%=      5-min Rain = 0
KVA1 131729Z 23010KT 16/02 A3019 RMK A01 T01610019  RH  038%=      5-min Rain = 0
KVA1 131730Z 23008KT 16/02 A3019 RMK A01 T01600019  RH  039%=      5-min Rain = 0
KVA1 131731Z 22007KT 16/02 A3018 RMK A01 T01600020  RH  039%=      5-min Rain = 0
KVA1 131732Z 25006KT 16/02 A3018 RMK A01 T01600023  RH  040%=      5-min Rain = 0
KVA1 131733Z 21007KT 16/02 A3018 RMK A01 T01600021  RH  039%=      5-min Rain = 0
KVA1 131734Z 21008KT 16/02 A3018 RMK A01 T01610020  RH  039%=      5-min Rain = 0
KVA1 131735Z 22008KT 16/02 A3018 RMK A01 T01600021  RH  039%=      5-min Rain = 0
KVA1 131736Z 23009KT 16/02 A3018 RMK A01 T01610022  RH  039%=      5-min Rain = 0
KVA1 131737Z 22007KT 16/02 A3018 RMK A01 T01620024  RH  039%=      5-min Rain = 0
KVA1 131738Z 22007KT 17/03 A3018 RMK A01 T01650026  RH  039%=      5-min Rain = 0
KVA1 131739Z 23009KT 17/02 A3018 RMK A01 T01660023  RH  038%=      5-min Rain = 0
KVA1 131740Z 23009KT 17/02 A3017 RMK A01 T01660021  RH  038%=      5-min Rain = 0
KVA1 131741Z 22009KT 17/02 A3017 RMK A01 T01650021  RH  038%=      5-min Rain = 0
KVA1 131742Z 22010KT 16/02 A3017 RMK A01 T01640022  RH  038%=      5-min Rain = 0
KVA1 131743Z 24008KT 16/02 A3017 RMK A01 T01640021  RH  038%=      5-min Rain = 0
KVA1 131744Z 22008KT 16/02 A3017 RMK A01 T01640020  RH  038%=      5-min Rain = 0
KVA1 131745Z 22007KT 16/02 A3017 RMK A01 T01630019  RH  038%=      5-min Rain = 0
KVA1 131746Z 22008KT 16/02 A3017 RMK A01 T01640022  RH  038%=      5-min Rain = 0
KVA1 131747Z 23009KT 17/02 A3017 RMK A01 T01650023  RH  038%=      5-min Rain = 0
KVA1 131748Z 22008KT 17/02 A3017 RMK A01 T01650021  RH  038%=      5-min Rain = 0
KVA1 131749Z 22009KT 17/02 A3017 RMK A01 T01650023  RH  038%=      5-min Rain = 0
KVA1 131750Z 23010KT 17/02 A3017 RMK A01 T01650020  RH  037%=      5-min Rain = 0
KVA1 131751Z 23010KT 17/02 A3017 RMK A01 T01650021  RH  038%=      5-min Rain = 0
KVA1 131752Z 24008KT 17/02 A3017 RMK A01 T01650020  RH  037%=      5-min Rain = 0
KVA1 131753Z 24008KT 17/02 A3017 RMK A01 T01670018  RH  037%=      5-min Rain = 0
KVA1 131754Z 22008KT 17/02 A3017 RMK A01 T01680022  RH  037%=      5-min Rain = 0
KVA1 131755Z 21009KT 17/03 A3017 RMK A01 T01690025  RH  038%=      5-min Rain = 0
KVA1 131756Z 22008KT 17/02 A3017 RMK A01 T01690023  RH  037%=      5-min Rain = 0
KVA1 131757Z 22011KT 17/03 A3016 RMK A01 T01690025  RH  038%=      5-min Rain = 0
KVA1 131758Z 22010KT 17/02 A3016 RMK A01 T01690021  RH  037%=      5-min Rain = 0
KVA1 131759Z 22010KT 17/02 A3016 RMK A01 T01680021  RH  037%=      5-min Rain = 0
KVA1 131800Z 21009KT 17/02 A3016 RMK A01 T01680022  RH  037%=      5-min Rain = 0
KVA1 131801Z 22012KT 17/02 A3016 RMK A01 T01690022  RH  037%=      5-min Rain = 0
KVA1 131802Z 21011KT 17/02 A3016 RMK A01 T01700020  RH  037%=      5-min Rain = 0
KVA1 131803Z 22010KT 17/02 A3016 RMK A01 T01700018  RH  036%=      5-min Rain = 0
KVA1 131804Z 22010KT 17/02 A3016 RMK A01 T01700018  RH  036%=      5-min Rain = 0
KVA1 131805Z 22009KT 17/02 A3016 RMK A01 T01700018  RH  036%=      5-min Rain = 0
KVA1 131806Z 22008KT 17/02 A3015 RMK A01 T01710021  RH  036%=      5-min Rain = 0
KVA1 131807Z 21009KT 17/02 A3015 RMK A01 T01720021  RH  036%=      5-min Rain = 0
KVA1 131808Z 20006KT 17/02 A3015 RMK A01 T01720021  RH  036%=      5-min Rain = 0
KVA1 131809Z 21005KT 17/02 A3015 RMK A01 T01710020  RH  036%=      5-min Rain = 0
KVA1 131810Z 20007KT 17/03 A3015 RMK A01 T01720027  RH  038%=      5-min Rain = 0
KVA1 131811Z 21010KT 18/02 A3014 RMK A01 T01750024  RH  036%=      5-min Rain = 0
KVA1 131812Z 22008KT 17/02 A3014 RMK A01 T01740021  RH  036%=      5-min Rain = 0
KVA1 131813Z 22010KT 17/02 A3014 RMK A01 T01730024  RH  037%=      5-min Rain = 0
KVA1 131814Z 22010KT 18/02 A3014 RMK A01 T01750024  RH  036%=      5-min Rain = 0
KVA1 131815Z 23008KT 17/02 A3014 RMK A01 T01740021  RH  036%=      5-min Rain = 0
KVA1 131816Z 21010KT 17/02 A3014 RMK A01 T01740023  RH  036%=      5-min Rain = 0
KVA1 131817Z 23009KT 17/02 A3014 RMK A01 T01740023  RH  036%=      5-min Rain = 0
KVA1 131818Z 23010KT 18/02 A3014 RMK A01 T01750020  RH  035%=      5-min Rain = 0
KVA1 131819Z 21008KT 17/02 A3014 RMK A01 T01740019  RH  035%=      5-min Rain = 0
KVA1 131820Z 22008KT 17/02 A3014 RMK A01 T01740020  RH  035%=      5-min Rain = 0
KVA1 131821Z 23007KT 17/02 A3014 RMK A01 T01740021  RH  036%=      5-min Rain = 0
KVA1 131822Z 23011KT 18/02 A3013 RMK A01 T01760023  RH  036%=      5-min Rain = 0
KVA1 131823Z 24007KT 18/02 A3014 RMK A01 T01780019  RH  035%=      5-min Rain = 0
KVA1 131824Z 21009KT 18/02 A3013 RMK A01 T01790023  RH  035%=      5-min Rain = 0
KVA1 131825Z 23010KT 18/03 A3013 RMK A01 T01790025  RH  036%=      5-min Rain = 0
KVA1 131826Z 22009KT 18/02 A3013 RMK A01 T01800024  RH  035%=      5-min Rain = 0
KVA1 131827Z 21009KT 18/02 A3013 RMK A01 T01780021  RH  035%=      5-min Rain = 0
KVA1 131828Z 21008KT 18/02 A3013 RMK A01 T01770024  RH  036%=      5-min Rain = 0
KVA1 131829Z 22009KT 18/03 A3013 RMK A01 T01790027  RH  036%=      5-min Rain = 0
KVA1 131830Z 23008KT 18/03 A3013 RMK A01 T01810026  RH  036%=      5-min Rain = 0
KVA1 131831Z 22008KT 18/02 A3013 RMK A01 T01800024  RH  035%=      5-min Rain = 0
KVA1 131832Z 22010KT 18/02 A3013 RMK A01 T01790024  RH  035%=      5-min Rain = 0
KVA1 131833Z 22008KT 18/02 A3013 RMK A01 T01780020  RH  035%=      5-min Rain = 0
KVA1 131834Z 21007KT 18/02 A3013 RMK A01 T01770020  RH  035%=      5-min Rain = 0
KVA1 131835Z 22008KT 18/02 A3012 RMK A01 T01760020  RH  035%=      5-min Rain = 0
KVA1 131836Z 20009KT 18/02 A3012 RMK A01 T01750021  RH  035%=      5-min Rain = 0
KVA1 131837Z 22011KT 18/02 A3012 RMK A01 T01770024  RH  036%=      5-min Rain = 0
KVA1 131838Z 23008KT 18/02 A3012 RMK A01 T01790024  RH  035%=      5-min Rain = 0
KVA1 131839Z 21007KT 18/02 A3012 RMK A01 T01800024  RH  035%=      5-min Rain = 0
KVA1 131840Z 22009KT 18/02 A3012 RMK A01 T01790022  RH  035%=      5-min Rain = 0
KVA1 131841Z 21009KT 18/02 A3012 RMK A01 T01790023  RH  035%=      5-min Rain = 0
KVA1 131842Z 22011KT 18/02 A3012 RMK A01 T01780024  RH  036%=      5-min Rain = 0
KVA1 131843Z 22013KT 18/02 A3012 RMK A01 T01800024  RH  035%=      5-min Rain = 0
KVA1 131844Z 22011KT 18/02 A3012 RMK A01 T01800023  RH  035%=      5-min Rain = 0
KVA1 131845Z 23010KT 18/02 A3012 RMK A01 T01790024  RH  035%=      5-min Rain = 0
KVA1 131846Z 22011KT 18/02 A3012 RMK A01 T01800022  RH  035%=      5-min Rain = 0
KVA1 131847Z 23011KT 18/02 A3012 RMK A01 T01800023  RH  035%=      5-min Rain = 0
KVA1 131848Z 23012KT 18/02 A3012 RMK A01 T01810022  RH  034%=      5-min Rain = 0
KVA1 131849Z 22008KT 18/02 A3012 RMK A01 T01800021  RH  034%=      5-min Rain = 0
KVA1 131850Z 22010KT 18/02 A3012 RMK A01 T01800024  RH  035%=      5-min Rain = 0
KVA1 131851Z 22010KT 18/02 A3012 RMK A01 T01810022  RH  035%=      5-min Rain = 0
KVA1 131852Z 22008KT 18/03 A3012 RMK A01 T01820025  RH  035%=      5-min Rain = 0
KVA1 131853Z 21008KT 18/03 A3011 RMK A01 T01840028  RH  035%=      5-min Rain = 0
KVA1 131854Z 21010KT 19/03 A3011 RMK A01 T01860026  RH  034%=      5-min Rain = 0
KVA1 131855Z 21010KT 19/02 A3011 RMK A01 T01860021  RH  033%=      5-min Rain = 0
KVA1 131856Z 22010KT 19/02 A3011 RMK A01 T01850024  RH  034%=      5-min Rain = 0
KVA1 131857Z 23009KT 18/03 A3011 RMK A01 T01840026  RH  035%=      5-min Rain = 0
KVA1 131858Z 23013KT 18/03 A3011 RMK A01 T01840025  RH  035%=      5-min Rain = 0
KVA1 131859Z 23012KT 18/02 A3011 RMK A01 T01830023  RH  034%=      5-min Rain = 0
KVA1 131900Z 23008KT 18/02 A3011 RMK A01 T01820023  RH  035%=      5-min Rain = 0
KVA1 131901Z 23008KT 18/03 A3011 RMK A01 T01820027  RH  035%=      5-min Rain = 0
KVA1 131902Z 22011KT 18/03 A3011 RMK A01 T01840027  RH  035%=      5-min Rain = 0
KVA1 131903Z 21011KT 19/03 A3011 RMK A01 T01860025  RH  034%=      5-min Rain = 0
KVA1 131904Z 21010KT 19/02 A3011 RMK A01 T01850024  RH  034%=      5-min Rain = 0
KVA1 131905Z 21011KT 18/03 A3011 RMK A01 T01840025  RH  034%=      5-min Rain = 0
KVA1 131906Z 22012KT 18/02 A3011 RMK A01 T01840023  RH  034%=      5-min Rain = 0
KVA1 131907Z 22011KT 18/02 A3011 RMK A01 T01830022  RH  034%=      5-min Rain = 0
KVA1 131908Z 23008KT 18/02 A3011 RMK A01 T01820024  RH  035%=      5-min Rain = 0
KVA1 131909Z 21011KT 18/03 A3011 RMK A01 T01830025  RH  035%=      5-min Rain = 0
KVA1 131910Z 21011KT 19/03 A3011 RMK A01 T01850026  RH  035%=      5-min Rain = 0
KVA1 131911Z 24008KT 19/02 A3011 RMK A01 T01850023  RH  034%=      5-min Rain = 0
KVA1 131912Z 24008KT 19/03 A3011 RMK A01 T01860026  RH  035%=      5-min Rain = 0
KVA1 131913Z 24012KT 19/03 A3011 RMK A01 T01870025  RH  034%=      5-min Rain = 0
KVA1 131914Z 23010KT 19/02 A3011 RMK A01 T01880023  RH  033%=      5-min Rain = 0
KVA1 131915Z 21008KT 19/02 A301 RMK A01 T01880024  RH  034%=      5-min Rain = 0
KVA1 131916Z 23008KT 19/02 A301 RMK A01 T01880022  RH  033%=      5-min Rain = 0
KVA1 131917Z 23010KT 19/03 A301 RMK A01 T01880025  RH  034%=      5-min Rain = 0
KVA1 131918Z 24008KT 19/02 A301 RMK A01 T01900023  RH  033%=      5-min Rain = 0
KVA1 131919Z 24011KT 19/02 A301 RMK A01 T01930015  RH  030%=      5-min Rain = 0
KVA1 131920Z 26011KT 19/01 A301 RMK A01 T01930014  RH  030%=      5-min Rain = 0
KVA1 131921Z 26010KT 19/01 A301 RMK A01 T01920013  RH  030%=      5-min Rain = 0
KVA1 131922Z 26009KT 19/01 A301 RMK A01 T01920013  RH  030%=      5-min Rain = 0
KVA1 131923Z 26008KT 19/02 A301 RMK A01 T01920017  RH  031%=      5-min Rain = 0
KVA1 131924Z 26010KT 19/02 A301 RMK A01 T01940017  RH  031%=      5-min Rain = 0
KVA1 131925Z 23009KT 19/02 A3009 RMK A01 T01940017  RH  031%=      5-min Rain = 0
KVA1 131926Z 23008KT 19/02 A3009 RMK A01 T01940016  RH  030%=      5-min Rain = 0
KVA1 131927Z 21009KT 19/02 A301 RMK A01 T01940022  RH  032%=      5-min Rain = 0
KVA1 131928Z 23007KT 19/02 A301 RMK A01 T01940024  RH  032%=      5-min Rain = 0
KVA1 131929Z 20007KT 19/03 A301 RMK A01 T01940025  RH  033%=      5-min Rain = 0
KVA1 131930Z 21008KT 19/02 A3009 RMK A01 T01940024  RH  032%=      5-min Rain = 0
KVA1 131931Z 22010KT 19/02 A3009 RMK A01 T01930023  RH  032%=      5-min Rain = 0
KVA1 131932Z 23010KT 19/02 A3009 RMK A01 T01920023  RH  032%=      5-min Rain = 0
KVA1 131933Z 22009KT 19/02 A3009 RMK A01 T01920023  RH  032%=      5-min Rain = 0
KVA1 131934Z 22009KT 19/03 A3009 RMK A01 T01940026  RH  033%=      5-min Rain = 0
KVA1 131935Z 24009KT 20/03 A3009 RMK A01 T01960026  RH  032%=      5-min Rain = 0
KVA1 131936Z 24007KT 20/03 A3009 RMK A01 T01970027  RH  032%=      5-min Rain = 0
KVA1 131937Z 23008KT 20/03 A3009 RMK A01 T01980025  RH  032%=      5-min Rain = 0
KVA1 131938Z 21008KT 20/02 A3009 RMK A01 T01970023  RH  031%=      5-min Rain = 0
KVA1 131939Z 22009KT 20/02 A3009 RMK A01 T01960021  RH  031%=      5-min Rain = 0
KVA1 131940Z 24008KT 19/02 A3009 RMK A01 T01930023  RH  032%=      5-min Rain = 0
KVA1 131941Z 25008KT 20/02 A301 RMK A01 T01950023  RH  032%=      5-min Rain = 0
KVA1 131942Z 24011KT 20/02 A301 RMK A01 T01960022  RH  032%=      5-min Rain = 0
KVA1 131943Z 24011KT 20/02 A301 RMK A01 T01950022  RH  032%=      5-min Rain = 0
KVA1 131944Z 23010KT 20/02 A301 RMK A01 T01950022  RH  032%=      5-min Rain = 0
KVA1 131945Z 24005KT 19/02 A301 RMK A01 T01940024  RH  032%=      5-min Rain = 0
KVA1 131946Z 26005KT 20/02 A301 RMK A01 T01970024  RH  032%=      5-min Rain = 0
KVA1 131947Z 27008KT 20/02 A3009 RMK A01 T01990018  RH  030%=      5-min Rain = 0
KVA1 131948Z 26009KT 20/01 A3009 RMK A01 T02000014  RH  029%=      5-min Rain = 0
KVA1 131949Z 25010KT 20/01 A3009 RMK A01 T02000013  RH  029%=      5-min Rain = 0
KVA1 131950Z 27009KT 20/01 A3009 RMK A01 T02010014  RH  029%=      5-min Rain = 0
KVA1 131951Z 28011KT 20/01 A3009 RMK A01 T02020013  RH  028%=      5-min Rain = 0
KVA1 131952Z 28009KT 20/01 A3009 RMK A01 T02020012  RH  028%=      5-min Rain = 0
KVA1 131953Z 27007KT 20/01 A3009 RMK A01 T02020014  RH  029%=      5-min Rain = 0
KVA1 131954Z 26009KT 20/02 A3009 RMK A01 T02040015  RH  029%=      5-min Rain = 0
KVA1 131955Z 25008KT 20/01 A3009 RMK A01 T02040013  RH  028%=      5-min Rain = 0
KVA1 131956Z 25010KT 20/01 A3009 RMK A01 T02030014  RH  028%=      5-min Rain = 0
KVA1 131957Z 26011KT 20/01 A3009 RMK A01 T02030013  RH  028%=      5-min Rain = 0
KVA1 131958Z 26011KT 20/01 A3009 RMK A01 T02030012  RH  028%=      5-min Rain = 0
KVA1 131959Z 26009KT 20/01 A3009 RMK A01 T02030011  RH  028%=      5-min Rain = 0
KVA1 132000Z 25013KT 20/01 A3009 RMK A01 T02030014  RH  028%=      5-min Rain = 0
KVA1 132001Z 26014KT 20/01 A3009 RMK A01 T02040012  RH  028%=      5-min Rain = 0
KVA1 132002Z 26010KT 20/01 A3009 RMK A01 T02040011  RH  028%=      5-min Rain = 0
KVA1 132003Z 27012KT 20/01 A3009 RMK A01 T02030011  RH  028%=      5-min Rain = 0
KVA1 132004Z 27010KT 20/01 A3009 RMK A01 T02020009  RH  028%=      5-min Rain = 0
KVA1 132005Z 27008KT 20/01 A3009 RMK A01 T02010012  RH  028%=      5-min Rain = 0
KVA1 132006Z 26007KT 20/01 A3009 RMK A01 T02020010  RH  028%=      5-min Rain = 0
KVA1 132007Z 28008KT 20/01 A3008 RMK A01 T02010013  RH  028%=      5-min Rain = 0
KVA1 132008Z 27012KT 20/01 A3008 RMK A01 T02010014  RH  029%=      5-min Rain = 0
KVA1 132009Z 26009KT 20/01 A3009 RMK A01 T02010013  RH  028%=      5-min Rain = 0
KVA1 132010Z 24010KT 20/01 A3008 RMK A01 T02020013  RH  028%=      5-min Rain = 0
KVA1 132011Z 25009KT 20/02 A3008 RMK A01 T02020015  RH  029%=      5-min Rain = 0
KVA1 132012Z 26009KT 20/02 A3008 RMK A01 T02030016  RH  029%=      5-min Rain = 0
KVA1 132013Z 27010KT 20/01 A3008 RMK A01 T02020012  RH  028%=      5-min Rain = 0
KVA1 132014Z 28008KT 20/01 A3008 RMK A01 T02000012  RH  029%=      5-min Rain = 0
KVA1 132015Z 26008KT 20/01 A3008 RMK A01 T01990012  RH  029%=      5-min Rain = 0
KVA1 132016Z 27006KT 20/01 A3008 RMK A01 T01990012  RH  029%=      5-min Rain = 0
KVA1 132017Z 26008KT 20/02 A3008 RMK A01 T02000016  RH  029%=      5-min Rain = 0
KVA1 132018Z 24010KT 20/01 A3008 RMK A01 T02020014  RH  029%=      5-min Rain = 0
KVA1 132019Z 24008KT 20/01 A3008 RMK A01 T02020013  RH  028%=      5-min Rain = 0
KVA1 132020Z 25009KT 20/02 A3008 RMK A01 T02030016  RH  029%=      5-min Rain = 0
KVA1 132021Z 26012KT 20/01 A3008 RMK A01 T02040013  RH  028%=      5-min Rain = 0
KVA1 132022Z 25011KT 20/01 A3008 RMK A01 T02020012  RH  028%=      5-min Rain = 0
KVA1 132023Z 25012KT 20/01 A3008 RMK A01 T02010013  RH  028%=      5-min Rain = 0
KVA1 132024Z 26011KT 20/01 A3008 RMK A01 T02010014  RH  029%=      5-min Rain = 0
KVA1 132025Z 27011KT 20/01 A3007 RMK A01 T02020014  RH  029%=      5-min Rain = 0
KVA1 132026Z 27013KT 20/01 A3008 RMK A01 T02010012  RH  028%=      5-min Rain = 0
KVA1 132027Z 27013KT 20/01 A3008 RMK A01 T01990011  RH  028%=      5-min Rain = 0
KVA1 132028Z 27012KT 20/01 A3007 RMK A01 T01980011  RH  029%=      5-min Rain = 0
KVA1 132029Z 26013KT 20/01 A3007 RMK A01 T01990012  RH  029%=      5-min Rain = 0
KVA1 132030Z 25011KT 20/01 A3007 RMK A01 T01990011  RH  029%=      5-min Rain = 0
KVA1 132031Z 25010KT 20/01 A3007 RMK A01 T02000014  RH  029%=      5-min Rain = 0
KVA1 132032Z 25011KT 20/01 A3007 RMK A01 T02010012  RH  028%=      5-min Rain = 0
KVA1 132033Z 25011G16KT 20/01 A3007 RMK A01 T02010012  RH  028%=      5-min Rain = 0
KVA1 132034Z 26014G19KT 20/01 A3007 RMK A01 T02010011  RH  028%=      5-min Rain = 0
KVA1 132035Z 26012KT 20/01 A3007 RMK A01 T02010011  RH  028%=      5-min Rain = 0
KVA1 132036Z 26011KT 20/01 A3007 RMK A01 T02010010  RH  028%=      5-min Rain = 0
KVA1 132037Z 25009KT 20/01 A3007 RMK A01 T02020013  RH  028%=      5-min Rain = 0
KVA1 132038Z 26007KT 20/02 A3008 RMK A01 T02030015  RH  029%=      5-min Rain = 0
KVA1 132039Z 25011KT 21/02 A3007 RMK A01 T02050016  RH  028%=      5-min Rain = 0
KVA1 132040Z 24010KT 21/01 A3007 RMK A01 T02060014  RH  028%=      5-min Rain = 0
KVA1 132041Z 26011KT 21/02 A3007 RMK A01 T02050015  RH  028%=      5-min Rain = 0
KVA1 132042Z 27013KT 21/01 A3007 RMK A01 T02060014  RH  028%=      5-min Rain = 0
KVA1 132043Z 26011KT 20/01 A3007 RMK A01 T02040011  RH  028%=      5-min Rain = 0
KVA1 132044Z 25013KT 20/01 A3007 RMK A01 T02020011  RH  028%=      5-min Rain = 0
KVA1 132045Z 25012KT 20/01 A3007 RMK A01 T02010013  RH  028%=      5-min Rain = 0
KVA1 132046Z 25011KT 20/01 A3007 RMK A01 T02020012  RH  028%=      5-min Rain = 0
KVA1 132047Z 25012KT 20/01 A3007 RMK A01 T02010012  RH  028%=      5-min Rain = 0
KVA1 132048Z 26010KT 20/01 A3007 RMK A01 T02010011  RH  028%=      5-min Rain = 0
KVA1 132049Z 25010KT 20/01 A3007 RMK A01 T02010013  RH  028%=      5-min Rain = 0
KVA1 132050Z 25010KT 20/01 A3007 RMK A01 T02020013  RH  028%=      5-min Rain = 0
KVA1 132051Z 25007KT 20/01 A3007 RMK A01 T02020013  RH  028%=      5-min Rain = 0
KVA1 132052Z 26009G14KT 20/02 A3007 RMK A01 T02030016  RH  029%=      5-min Rain = 0
KVA1 132053Z 26010KT 20/02 A3007 RMK A01 T02040015  RH  028%=      5-min Rain = 0
KVA1 132054Z 25010KT 20/01 A3007 RMK A01 T02040014  RH  028%=      5-min Rain = 0
KVA1 132055Z 25009KT 20/01 A3007 RMK A01 T02030014  RH  028%=      5-min Rain = 0
KVA1 132056Z 24010KT 20/01 A3007 RMK A01 T02040014  RH  028%=      5-min Rain = 0
KVA1 132057Z 26011KT 21/02 A3007 RMK A01 T02050015  RH  028%=      5-min Rain = 0
KVA1 132058Z 27009KT 21/01 A3007 RMK A01 T02060013  RH  028%=      5-min Rain = 0
KVA1 132059Z 27008KT 21/01 A3007 RMK A01 T02060014  RH  028%=      5-min Rain = 0
KVA1 132100Z 27006KT 21/02 A3007 RMK A01 T02060015  RH  028%=      5-min Rain = 0
KVA1 132101Z 28008KT 21/02 A3007 RMK A01 T02070015  RH  028%=      5-min Rain = 0
KVA1 132102Z 27009KT 21/02 A3007 RMK A01 T02080015  RH  028%=      5-min Rain = 0
KVA1 132103Z 25007KT 21/02 A3007 RMK A01 T02080017  RH  028%=      5-min Rain = 0
KVA1 132104Z 25008KT 21/02 A3007 RMK A01 T02100019  RH  028%=      5-min Rain = 0
KVA1 132105Z 24008KT 21/02 A3007 RMK A01 T02110017  RH  028%=      5-min Rain = 0
KVA1 132106Z 23008KT 21/02 A3007 RMK A01 T02110015  RH  027%=      5-min Rain = 0
KVA1 132107Z 24008KT 21/02 A3007 RMK A01 T02100017  RH  028%=      5-min Rain = 0
KVA1 132108Z 24008KT 21/02 A3007 RMK A01 T02100019  RH  028%=      5-min Rain = 0
KVA1 132109Z 24009KT 21/02 A3007 RMK A01 T02100017  RH  028%=      5-min Rain = 0
KVA1 132110Z 23009KT 21/01 A3007 RMK A01 T02080014  RH  028%=      5-min Rain = 0
KVA1 132111Z 23008KT 21/02 A3007 RMK A01 T02070017  RH  028%=      5-min Rain = 0
KVA1 132112Z 24008KT 21/02 A3007 RMK A01 T02070018  RH  028%=      5-min Rain = 0
KVA1 132113Z 24006KT 21/02 A3007 RMK A01 T02080017  RH  028%=      5-min Rain = 0
KVA1 132114Z 23006KT 21/02 A3007 RMK A01 T02080018  RH  028%=      5-min Rain = 0
KVA1 132115Z 22008KT 21/02 A3007 RMK A01 T02080017  RH  028%=      5-min Rain = 0
KVA1 132116Z 23009KT 21/02 A3007 RMK A01 T02070017  RH  028%=      5-min Rain = 0
KVA1 132117Z 24010KT 21/02 A3007 RMK A01 T02080019  RH  029%=      5-min Rain = 0
KVA1 132118Z 23010KT 21/02 A3007 RMK A01 T02080017  RH  028%=      5-min Rain = 0
KVA1 132119Z 22008KT 21/02 A3007 RMK A01 T02080018  RH  028%=      5-min Rain = 0
KVA1 132120Z 24009KT 21/02 A3007 RMK A01 T02090019  RH  028%=      5-min Rain = 0
KVA1 132121Z 24009KT 21/02 A3007 RMK A01 T02090018  RH  028%=      5-min Rain = 0
KVA1 132122Z 24009KT 21/02 A3007 RMK A01 T02090019  RH  028%=      5-min Rain = 0
KVA1 132123Z 25011KT 21/02 A3007 RMK A01 T02090020  RH  029%=      5-min Rain = 0
KVA1 132124Z 26009KT 21/02 A3007 RMK A01 T02080017  RH  028%=      5-min Rain = 0
KVA1 132125Z 25007KT 21/02 A3007 RMK A01 T02070018  RH  029%=      5-min Rain = 0
KVA1 132126Z 24008KT 21/02 A3007 RMK A01 T02070019  RH  029%=      5-min Rain = 0
KVA1 132127Z 24008KT 21/02 A3007 RMK A01 T02070019  RH  029%=      5-min Rain = 0
KVA1 132128Z 24008KT 21/02 A3007 RMK A01 T02080019  RH  029%=      5-min Rain = 0
KVA1 132129Z 23009KT 21/02 A3007 RMK A01 T02080018  RH  028%=      5-min Rain = 0
KVA1 132130Z 23010KT 21/02 A3007 RMK A01 T02080018  RH  028%=      5-min Rain = 0
KVA1 132131Z 24012KT 21/02 A3007 RMK A01 T02080017  RH  028%=      5-min Rain = 0
KVA1 132132Z 25011KT 21/02 A3007 RMK A01 T02070016  RH  028%=      5-min Rain = 0
KVA1 132133Z 24007KT 21/02 A3007 RMK A01 T02070018  RH  028%=      5-min Rain = 0
KVA1 132134Z 24006KT 21/02 A3007 RMK A01 T02070020  RH  029%=      5-min Rain = 0
KVA1 132135Z 24008KT 21/02 A3007 RMK A01 T02090022  RH  029%=      5-min Rain = 0
KVA1 132136Z 25008KT 21/02 A3007 RMK A01 T02100021  RH  029%=      5-min Rain = 0
KVA1 132137Z 26009KT 21/02 A3007 RMK A01 T02110022  RH  029%=      5-min Rain = 0
KVA1 132138Z 26011KT 21/02 A3007 RMK A01 T02120019  RH  028%=      5-min Rain = 0
KVA1 132139Z 27009KT 21/02 A3007 RMK A01 T02110016  RH  027%=      5-min Rain = 0
KVA1 132140Z 27011KT 21/02 A3007 RMK A01 T02110016  RH  028%=      5-min Rain = 0
KVA1 132141Z 28009KT 21/02 A3007 RMK A01 T02100015  RH  027%=      5-min Rain = 0
KVA1 132142Z 26008KT 21/02 A3007 RMK A01 T02100017  RH  028%=      5-min Rain = 0
KVA1 132143Z 26011KT 21/02 A3007 RMK A01 T02100018  RH  028%=      5-min Rain = 0
KVA1 132144Z 26011KT 21/02 A3007 RMK A01 T02100017  RH  028%=      5-min Rain = 0
KVA1 132145Z 26011KT 21/02 A3007 RMK A01 T02100015  RH  027%=      5-min Rain = 0
KVA1 132146Z 25011KT 21/02 A3007 RMK A01 T02090015  RH  028%=      5-min Rain = 0
KVA1 132147Z 25011KT 21/02 A3007 RMK A01 T02080016  RH  028%=      5-min Rain = 0
KVA1 132148Z 25009KT 21/02 A3007 RMK A01 T02090019  RH  028%=      5-min Rain = 0
KVA1 132149Z 25010KT 21/02 A3007 RMK A01 T02100016  RH  028%=      5-min Rain = 0
KVA1 132150Z 25007KT 21/02 A3007 RMK A01 T02100017  RH  028%=      5-min Rain = 0
KVA1 132151Z 26008KT 21/02 A3007 RMK A01 T02110018  RH  028%=      5-min Rain = 0
KVA1 132152Z 25010KT 21/02 A3007 RMK A01 T02110018  RH  028%=      5-min Rain = 0
KVA1 132153Z 25011KT 21/02 A3007 RMK A01 T02120017  RH  028%=      5-min Rain = 0
KVA1 132154Z 24010KT 21/02 A3006 RMK A01 T02120015  RH  027%=      5-min Rain = 0
KVA1 132155Z 25010KT 21/02 A3006 RMK A01 T02110016  RH  027%=      5-min Rain = 0
KVA1 132156Z 25010KT 21/02 A3006 RMK A01 T02100017  RH  028%=      5-min Rain = 0
KVA1 132157Z 24010KT 21/02 A3006 RMK A01 T02110018  RH  028%=      5-min Rain = 0
KVA1 132158Z 24012KT 21/02 A3006 RMK A01 T02110016  RH  027%=      5-min Rain = 0
KVA1 132159Z 25009KT 21/02 A3006 RMK A01 T02100015  RH  027%=      5-min Rain = 0
KVA1 132200Z 26009KT 21/01 A3006 RMK A01 T02090014  RH  027%=      5-min Rain = 0
KVA1 132201Z 26009KT 21/02 A3006 RMK A01 T02090016  RH  028%=      5-min Rain = 0
KVA1 132202Z 26010KT 21/02 A3006 RMK A01 T02090015  RH  028%=      5-min Rain = 0
KVA1 132203Z 28008KT 21/01 A3006 RMK A01 T02090014  RH  027%=      5-min Rain = 0
KVA1 132204Z 26007KT 21/02 A3006 RMK A01 T02090017  RH  028%=      5-min Rain = 0
KVA1 132205Z 27009KT 21/02 A3006 RMK A01 T02110016  RH  028%=      5-min Rain = 0
KVA1 132206Z 26009KT 21/02 A3006 RMK A01 T02110016  RH  027%=      5-min Rain = 0
KVA1 132207Z 26008KT 21/02 A3006 RMK A01 T02120016  RH  027%=      5-min Rain = 0
KVA1 132208Z 28008KT 21/02 A3006 RMK A01 T02110017  RH  028%=      5-min Rain = 0
KVA1 132209Z 28011KT 21/01 A3006 RMK A01 T02120012  RH  026%=      5-min Rain = 0
KVA1 132210Z 28009KT 21/01 A3006 RMK A01 T02120010  RH  026%=      5-min Rain = 0
KVA1 132211Z 28008KT 21/01 A3006 RMK A01 T02110008  RH  026%=      5-min Rain = 0
KVA1 132212Z 27011KT 21/01 A3006 RMK A01 T02110007  RH  026%=      5-min Rain = 0
KVA1 132213Z 28014KT 21/00 A3006 RMK A01 T02100004  RH  025%=      5-min Rain = 0
KVA1 132214Z 27010KT 21/00 A3006 RMK A01 T02100003  RH  025%=      5-min Rain = 0
KVA1 132215Z 28013G18KT 21/00 A3006 RMK A01 T02090004  RH  025%=      5-min Rain = 0
KVA1 132216Z 28012KT 21/00 A3006 RMK A01 T02090002  RH  025%=      5-min Rain = 0
KVA1 132217Z 29011KT 21/00 A3006 RMK A01 T02090003  RH  025%=      5-min Rain = 0
KVA1 132218Z 29012KT 21/00 A3006 RMK A01 T02090003  RH  025%=      5-min Rain = 0
KVA1 132219Z 29011KT 21/00 A3006 RMK A01 T02090003  RH  025%=      5-min Rain = 0
KVA1 132220Z 29008KT 21/01 A3006 RMK A01 T02090005  RH  026%=      5-min Rain = 0
KVA1 132221Z 29010KT 21/01 A3006 RMK A01 T02100005  RH  026%=      5-min Rain = 0
KVA1 132222Z 29010KT 21/00 A3006 RMK A01 T02100004  RH  025%=      5-min Rain = 0
KVA1 132223Z 29009KT 21/00 A3006 RMK A01 T02110004  RH  025%=      5-min Rain = 0
KVA1 132224Z 28009KT 21/00 A3006 RMK A01 T02100004  RH  025%=      5-min Rain = 0
KVA1 132225Z 27010KT 21/00 A3006 RMK A01 T02100004  RH  025%=      5-min Rain = 0
KVA1 132226Z 28011KT 21/00 A3006 RMK A01 T02100004  RH  025%=      5-min Rain = 0
KVA1 132227Z 28011KT 21/00 A3006 RMK A01 T02100003  RH  025%=      5-min Rain = 0
KVA1 132228Z 28008KT 21/00 A3006 RMK A01 T02100004  RH  025%=      5-min Rain = 0
KVA1 132229Z 27010KT 21/00 A3006 RMK A01 T02100004  RH  025%=      5-min Rain = 0
KVA1 132230Z 27013KT 21/00 A3006 RMK A01 T02090004  RH  025%=      5-min Rain = 0
KVA1 132231Z 28010KT 21/00 A3006 RMK A01 T02080003  RH  025%=      5-min Rain = 0
KVA1 132232Z 28012KT 21/01 A3006 RMK A01 T02080005  RH  026%=      5-min Rain = 0
KVA1 132233Z 28011KT 21/00 A3006 RMK A01 T02080004  RH  026%=      5-min Rain = 0
KVA1 132234Z 29012G17KT 21/01 A3007 RMK A01 T02080005  RH  026%=      5-min Rain = 0
KVA1 132235Z 29012KT 21/00 A3007 RMK A01 T02080004  RH  026%=      5-min Rain = 0
KVA1 132236Z 30011KT 21/00 A3006 RMK A01 T02080003  RH  026%=      5-min Rain = 0
KVA1 132237Z 29010KT 21/00 A3006 RMK A01 T02070003  RH  026%=      5-min Rain = 0
KVA1 132238Z 29009KT 21/00 A3006 RMK A01 T02070003  RH  026%=      5-min Rain = 0
KVA1 132239Z 29011KT 21/00 A3006 RMK A01 T02070004  RH  026%=      5-min Rain = 0
KVA1 132240Z 29009KT 21/01 A3006 RMK A01 T02070006  RH  026%=      5-min Rain = 0
KVA1 132241Z 29006KT 21/01 A3006 RMK A01 T02070008  RH  026%=      5-min Rain = 0
KVA1 132242Z 28008KT 21/01 A3006 RMK A01 T02070008  RH  027%=      5-min Rain = 0
KVA1 132243Z 28010KT 21/01 A3006 RMK A01 T02080008  RH  026%=      5-min Rain = 0
KVA1 132244Z 28010KT 21/01 A3006 RMK A01 T02080006  RH  026%=      5-min Rain = 0
KVA1 132245Z 28010KT 21/01 A3006 RMK A01 T02080007  RH  026%=      5-min Rain = 0
KVA1 132246Z 29008KT 21/01 A3006 RMK A01 T02070008  RH  026%=      5-min Rain = 0
KVA1 132247Z 29008KT 21/01 A3006 RMK A01 T02070008  RH  027%=      5-min Rain = 0
KVA1 132248Z 28010KT 21/01 A3006 RMK A01 T02070009  RH  027%=      5-min Rain = 0
KVA1 132249Z 28009KT 21/01 A3006 RMK A01 T02070009  RH  027%=      5-min Rain = 0
KVA1 132250Z 28011KT 21/01 A3006 RMK A01 T02070010  RH  027%=      5-min Rain = 0
KVA1 132251Z 28012KT 21/01 A3006 RMK A01 T02070007  RH  026%=      5-min Rain = 0
KVA1 132252Z 29013KT 21/01 A3006 RMK A01 T02050005  RH  026%=      5-min Rain = 0
KVA1 132253Z 28011KT 21/01 A3006 RMK A01 T02050006  RH  027%=      5-min Rain = 0
KVA1 132254Z 28010KT 20/01 A3006 RMK A01 T02040008  RH  027%=      5-min Rain = 0
KVA1 132255Z 28009KT 20/01 A3006 RMK A01 T02040008  RH  027%=      5-min Rain = 0
KVA1 132256Z 28011KT 20/01 A3006 RMK A01 T02040008  RH  027%=      5-min Rain = 0
KVA1 132257Z 27011KT 20/01 A3006 RMK A01 T02040007  RH  027%=      5-min Rain = 0
KVA1 132258Z 28012KT 20/01 A3006 RMK A01 T02040008  RH  027%=      5-min Rain = 0
KVA1 132259Z 29009KT 20/01 A3006 RMK A01 T02040008  RH  027%=      5-min Rain = 0
KVA1 132300Z 29013KT 20/01 A3006 RMK A01 T02040008  RH  027%=      5-min Rain = 0
KVA1 132301Z 28012KT 20/01 A3006 RMK A01 T02040007  RH  027%=      5-min Rain = 0
KVA1 132302Z 28013KT 20/01 A3006 RMK A01 T02040008  RH  027%=      5-min Rain = 0
KVA1 132303Z 29011KT 20/01 A3006 RMK A01 T02030007  RH  027%=      5-min Rain = 0
KVA1 132304Z 29012KT 20/01 A3006 RMK A01 T02030007  RH  027%=      5-min Rain = 0
KVA1 132305Z 28010KT 20/01 A3006 RMK A01 T02030008  RH  027%=      5-min Rain = 0
KVA1 132306Z 28012KT 20/01 A3006 RMK A01 T02030008  RH  027%=      5-min Rain = 0
KVA1 132307Z 28010KT 20/01 A3006 RMK A01 T02020008  RH  027%=      5-min Rain = 0
KVA1 132308Z 28011KT 20/01 A3006 RMK A01 T02020009  RH  028%=      5-min Rain = 0
KVA1 132309Z 28012KT 20/01 A3006 RMK A01 T02020008  RH  027%=      5-min Rain = 0
KVA1 132310Z 28011KT 20/01 A3006 RMK A01 T02020008  RH  027%=      5-min Rain = 0
KVA1 132311Z 29011KT 20/01 A3006 RMK A01 T02020008  RH  027%=      5-min Rain = 0
KVA1 132312Z 28012KT 20/01 A3006 RMK A01 T02020010  RH  028%=      5-min Rain = 0
KVA1 132313Z 28010KT 20/01 A3006 RMK A01 T02010009  RH  028%=      5-min Rain = 0
KVA1 132314Z 29011KT 20/01 A3006 RMK A01 T02010010  RH  028%=      5-min Rain = 0
KVA1 132315Z 28013KT 20/01 A3006 RMK A01 T02000009  RH  028%=      5-min Rain = 0
KVA1 132316Z 29012KT 20/01 A3006 RMK A01 T01990008  RH  028%=      5-min Rain = 0
KVA1 132317Z 28011KT 20/01 A3006 RMK A01 T01980009  RH  028%=      5-min Rain = 0
KVA1 132318Z 28011KT 20/01 A3006 RMK A01 T01970008  RH  028%=      5-min Rain = 0
KVA1 132319Z 29011KT 20/01 A3006 RMK A01 T01970009  RH  029%=      5-min Rain = 0
KVA1 132320Z 28011KT 20/01 A3006 RMK A01 T01960010  RH  029%=      5-min Rain = 0
KVA1 132321Z 28010KT 20/01 A3006 RMK A01 T01960011  RH  029%=      5-min Rain = 0
KVA1 132322Z 28013KT 20/01 A3006 RMK A01 T01950010  RH  029%=      5-min Rain = 0
KVA1 132323Z 28010KT 20/01 A3006 RMK A01 T01950011  RH  029%=      5-min Rain = 0
KVA1 132324Z 29011KT 20/01 A3006 RMK A01 T01950011  RH  029%=      5-min Rain = 0
KVA1 132325Z 28010KT 19/01 A3006 RMK A01 T01940010  RH  029%=      5-min Rain = 0
KVA1 132326Z 28008KT 19/01 A3006 RMK A01 T01940011  RH  029%=      5-min Rain = 0
KVA1 132327Z 28011KT 19/01 A3006 RMK A01 T01940011  RH  029%=      5-min Rain = 0
KVA1 132328Z 27008KT 19/01 A3006 RMK A01 T01940011  RH  030%=      5-min Rain = 0
KVA1 132329Z 27009KT 19/01 A3006 RMK A01 T01940013  RH  030%=      5-min Rain = 0
KVA1 132330Z 26007G12KT 19/01 A3006 RMK A01 T01930013  RH  030%=      5-min Rain = 0
KVA1 132331Z 27010KT 19/01 A3006 RMK A01 T01930012  RH  030%=      5-min Rain = 0
KVA1 132332Z 26010KT 19/01 A3006 RMK A01 T01920011  RH  030%=      5-min Rain = 0
KVA1 132333Z 26012KT 19/01 A3006 RMK A01 T01920010  RH  029%=      5-min Rain = 0
KVA1 132334Z 27011KT 19/01 A3006 RMK A01 T01920009  RH  029%=      5-min Rain = 0
KVA1 132335Z 26010KT 19/01 A3006 RMK A01 T01910009  RH  029%=      5-min Rain = 0
KVA1 132336Z 27011KT 19/01 A3006 RMK A01 T01910009  RH  030%=      5-min Rain = 0
KVA1 132337Z 27009KT 19/01 A3006 RMK A01 T01900009  RH  030%=      5-min Rain = 0
KVA1 132338Z 26010KT 19/01 A3006 RMK A01 T01900010  RH  030%=      5-min Rain = 0
KVA1 132339Z 27013KT 19/01 A3006 RMK A01 T01890009  RH  030%=      5-min Rain = 0
KVA1 132340Z 27013KT 19/01 A3006 RMK A01 T01890008  RH  030%=      5-min Rain = 0
KVA1 132341Z 27011KT 19/01 A3006 RMK A01 T01890008  RH  030%=      5-min Rain = 0
KVA1 132342Z 27009KT 19/01 A3006 RMK A01 T01890009  RH  030%=      5-min Rain = 0
KVA1 132343Z 27010KT 19/01 A3006 RMK A01 T01880010  RH  030%=      5-min Rain = 0
KVA1 132344Z 27009KT 19/01 A3006 RMK A01 T01880009  RH  030%=      5-min Rain = 0
KVA1 132345Z 27010KT 19/01 A3006 RMK A01 T01870010  RH  030%=      5-min Rain = 0
KVA1 132346Z 27012KT 19/01 A3006 RMK A01 T01860009  RH  030%=      5-min Rain = 0
KVA1 132347Z 26009KT 19/01 A3006 RMK A01 T01860010  RH  031%=      5-min Rain = 0
KVA1 132348Z 26009KT 19/01 A3006 RMK A01 T01850010  RH  031%=      5-min Rain = 0
KVA1 132349Z 26009KT 18/01 A3006 RMK A01 T01840011  RH  031%=      5-min Rain = 0
KVA1 132350Z 27009KT 18/01 A3006 RMK A01 T01830011  RH  031%=      5-min Rain = 0
KVA1 132351Z 27009KT 18/01 A3006 RMK A01 T01830011  RH  031%=      5-min Rain = 0
KVA1 132352Z 26007KT 18/01 A3006 RMK A01 T01820011  RH  032%=      5-min Rain = 0
KVA1 132353Z 27008KT 18/01 A3006 RMK A01 T01810012  RH  032%=      5-min Rain = 0
KVA1 132354Z 27008KT 18/01 A3006 RMK A01 T01800012  RH  032%=      5-min Rain = 0
KVA1 132355Z 27007KT 18/01 A3007 RMK A01 T01790011  RH  032%=      5-min Rain = 0
KVA1 132356Z 27008KT 18/01 A3007 RMK A01 T01790011  RH  032%=      5-min Rain = 0
KVA1 132357Z 26008KT 18/01 A3006 RMK A01 T01780011  RH  032%=      5-min Rain = 0
KVA1 132358Z 27008KT 18/01 A3006 RMK A01 T01780012  RH  033%=      5-min Rain = 0
KVA1 132359Z 26009KT 18/01 A3006 RMK A01 T01770012  RH  033%=      5-min Rain = 0
KVA1 140000Z 26008KT 18/01 A3006 RMK A01 T01770012  RH  033%=      5-min Rain = 0
KVA1 140001Z 26008KT 18/01 A3006 RMK A01 T01770012  RH  033%=      5-min Rain = 0
KVA1 140002Z 27008KT 18/01 A3006 RMK A01 T01770012  RH  033%=      5-min Rain = 0
KVA1 140003Z 27008KT 18/01 A3006 RMK A01 T01760013  RH  033%=      5-min Rain = 0
KVA1 140004Z 27007KT 18/01 A3006 RMK A01 T01750013  RH  034%=      5-min Rain = 0
KVA1 140005Z 27008KT 17/01 A3007 RMK A01 T01740013  RH  034%=      5-min Rain = 0
KVA1 140006Z 27008KT 17/01 A3007 RMK A01 T01740013  RH  034%=      5-min Rain = 0
KVA1 140007Z 27008KT 17/01 A3007 RMK A01 T01740014  RH  034%=      5-min Rain = 0
KVA1 140008Z 27008KT 17/01 A3007 RMK A01 T01730013  RH  034%=      5-min Rain = 0
KVA1 140009Z 27008KT 17/01 A3007 RMK A01 T01730013  RH  034%=      5-min Rain = 0
KVA1 140010Z 27008KT 17/01 A3007 RMK A01 T01730013  RH  034%=      5-min Rain = 0
KVA1 140011Z 27008KT 17/01 A3006 RMK A01 T01720014  RH  034%=      5-min Rain = 0
KVA1 140012Z 27008KT 17/01 A3006 RMK A01 T01710014  RH  035%=      5-min Rain = 0
KVA1 140013Z 26007KT 17/01 A3006 RMK A01 T01710014  RH  035%=      5-min Rain = 0
KVA1 140014Z 27008KT 17/01 A3006 RMK A01 T01710014  RH  035%=      5-min Rain = 0
KVA1 140015Z 27008KT 17/02 A3007 RMK A01 T01710015  RH  035%=      5-min Rain = 0
KVA1 140016Z 27008KT 17/01 A3007 RMK A01 T01700014  RH  035%=      5-min Rain = 0
KVA1 140017Z 27008KT 17/01 A3007 RMK A01 T01700014  RH  035%=      5-min Rain = 0
KVA1 140018Z 27007KT 17/02 A3007 RMK A01 T01700015  RH  035%=      5-min Rain = 0
KVA1 140019Z 26007KT 17/02 A3007 RMK A01 T01700015  RH  035%=      5-min Rain = 0
KVA1 140020Z 26007KT 17/02 A3007 RMK A01 T01690016  RH  036%=      5-min Rain = 0
KVA1 140021Z 26007KT 17/02 A3007 RMK A01 T01670016  RH  036%=      5-min Rain = 0
KVA1 140022Z 26007KT 17/02 A3007 RMK A01 T01660016  RH  036%=      5-min Rain = 0
KVA1 140023Z 26007KT 17/02 A3007 RMK A01 T01660016  RH  036%=      5-min Rain = 0
KVA1 140024Z 26007KT 16/02 A3007 RMK A01 T01640016  RH  037%=      5-min Rain = 0
KVA1 140025Z 26007KT 16/02 A3007 RMK A01 T01640016  RH  037%=      5-min Rain = 0
KVA1 140026Z 26008KT 16/02 A3007 RMK A01 T01640016  RH  037%=      5-min Rain = 0
KVA1 140027Z 27007KT 16/02 A3007 RMK A01 T01640016  RH  037%=      5-min Rain = 0
KVA1 140028Z 27007KT 16/02 A3007 RMK A01 T01640017  RH  037%=      5-min Rain = 0
KVA1 140029Z 26007KT 16/02 A3007 RMK A01 T01630017  RH  037%=      5-min Rain = 0
KVA1 140030Z 26008KT 16/02 A3007 RMK A01 T01630017  RH  037%=      5-min Rain = 0
KVA1 140031Z 26007KT 16/02 A3007 RMK A01 T01630017  RH  037%=      5-min Rain = 0
KVA1 140032Z 26007KT 16/02 A3007 RMK A01 T01620018  RH  038%=      5-min Rain = 0
KVA1 140033Z 26007KT 16/02 A3007 RMK A01 T01610018  RH  038%=      5-min Rain = 0
KVA1 140034Z 26007KT 16/02 A3007 RMK A01 T01600019  RH  038%=      5-min Rain = 0
KVA1 140035Z 25007KT 16/02 A3007 RMK A01 T01600019  RH  039%=      5-min Rain = 0
KVA1 140036Z 25008KT 16/02 A3007 RMK A01 T01580019  RH  039%=      5-min Rain = 0
KVA1 140037Z 25008KT 16/02 A3007 RMK A01 T01580020  RH  039%=      5-min Rain = 0
KVA1 140038Z 26008KT 16/02 A3007 RMK A01 T01570020  RH  040%=      5-min Rain = 0
KVA1 140039Z 25007KT 16/02 A3007 RMK A01 T01560020  RH  040%=      5-min Rain = 0
KVA1 140040Z 25007KT 16/02 A3007 RMK A01 T01560020  RH  040%=      5-min Rain = 0
KVA1 140041Z 25008KT 16/02 A3006 RMK A01 T01550021  RH  040%=      5-min Rain = 0
KVA1 140042Z 25007KT 15/02 A3006 RMK A01 T01540021  RH  041%=      5-min Rain = 0
KVA1 140043Z 25007KT 15/02 A3006 RMK A01 T01540021  RH  041%=      5-min Rain = 0
KVA1 140044Z 25008KT 15/02 A3006 RMK A01 T01540021  RH  041%=      5-min Rain = 0
KVA1 140045Z 25008KT 15/02 A3006 RMK A01 T01540022  RH  041%=      5-min Rain = 0
KVA1 140046Z 25007KT 15/02 A3006 RMK A01 T01530022  RH  041%=      5-min Rain = 0
KVA1 140047Z 25008KT 15/02 A3006 RMK A01 T01530022  RH  041%=      5-min Rain = 0
KVA1 140048Z 25008KT 15/02 A3006 RMK A01 T01530022  RH  041%=      5-min Rain = 0
KVA1 140049Z 25008KT 15/02 A3006 RMK A01 T01530022  RH  041%=      5-min Rain = 0
KVA1 140050Z 25007KT 15/02 A3006 RMK A01 T01530022  RH  041%=      5-min Rain = 0
KVA1 140051Z 26007KT 15/02 A3006 RMK A01 T01520022  RH  042%=      5-min Rain = 0
KVA1 140052Z 26008KT 15/02 A3006 RMK A01 T01510022  RH  042%=      5-min Rain = 0
KVA1 140053Z 26008KT 15/02 A3006 RMK A01 T01510023  RH  042%=      5-min Rain = 0
KVA1 140054Z 26007KT 15/02 A3006 RMK A01 T01510023  RH  042%=      5-min Rain = 0
KVA1 140055Z 26007KT 15/02 A3006 RMK A01 T01510023  RH  042%=      5-min Rain = 0
KVA1 140056Z 26007KT 15/02 A3006 RMK A01 T01500023  RH  042%=      5-min Rain = 0
KVA1 140057Z 26008KT 15/02 A3006 RMK A01 T01500023  RH  042%=      5-min Rain = 0
KVA1 140058Z 26009KT 15/02 A3006 RMK A01 T01500023  RH  042%=      5-min Rain = 0
KVA1 140059Z 25008KT 15/02 A3006 RMK A01 T01510023  RH  042%=      5-min Rain = 0
KVA1 140100Z 26007KT 15/02 A3006 RMK A01 T01510023  RH  042%=      5-min Rain = 0
KVA1 140101Z 25008KT 15/02 A3006 RMK A01 T01510023  RH  042%=      5-min Rain = 0
KVA1 140102Z 26007KT 15/02 A3006 RMK A01 T01510023  RH  042%=      5-min Rain = 0
KVA1 140103Z 26007KT 15/02 A3006 RMK A01 T01500023  RH  042%=      5-min Rain = 0
KVA1 140104Z 26007KT 15/02 A3006 RMK A01 T01510024  RH  042%=      5-min Rain = 0
KVA1 140105Z 26007KT 15/02 A3006 RMK A01 T01500023  RH  042%=      5-min Rain = 0
KVA1 140106Z 26007KT 15/02 A3006 RMK A01 T01490024  RH  043%=      5-min Rain = 0
KVA1 140107Z 26008KT 15/02 A3006 RMK A01 T01490024  RH  043%=      5-min Rain = 0
KVA1 140108Z 26008KT 15/02 A3006 RMK A01 T01480024  RH  043%=      5-min Rain = 0
KVA1 140109Z 27008KT 15/02 A3006 RMK A01 T01480024  RH  043%=      5-min Rain = 0
KVA1 140110Z 27007KT 15/02 A3006 RMK A01 T01480024  RH  043%=      5-min Rain = 0
KVA1 140111Z 27007KT 15/02 A3006 RMK A01 T01480024  RH  043%=      5-min Rain = 0
KVA1 140112Z 26008KT 15/02 A3006 RMK A01 T01480024  RH  043%=      5-min Rain = 0
KVA1 140113Z 27007KT 15/02 A3006 RMK A01 T01480024  RH  043%=      5-min Rain = 0
KVA1 140114Z 27008KT 15/02 A3006 RMK A01 T01470024  RH  043%=      5-min Rain = 0
KVA1 140115Z 26009KT 15/02 A3006 RMK A01 T01470024  RH  043%=      5-min Rain = 0
KVA1 140116Z 26008KT 15/02 A3006 RMK A01 T01470024  RH  043%=      5-min Rain = 0
KVA1 140117Z 26009KT 15/02 A3006 RMK A01 T01470023  RH  043%=      5-min Rain = 0
KVA1 140118Z 26009KT 15/02 A3006 RMK A01 T01480024  RH  043%=      5-min Rain = 0
KVA1 140119Z 26007KT 15/02 A3006 RMK A01 T01490024  RH  043%=      5-min Rain = 0
KVA1 140120Z 26007KT 15/02 A3006 RMK A01 T01490024  RH  043%=      5-min Rain = 0
KVA1 140121Z 26008KT 15/02 A3005 RMK A01 T01490024  RH  043%=      5-min Rain = 0
KVA1 140122Z 26007KT 15/02 A3005 RMK A01 T01490024  RH  043%=      5-min Rain = 0
KVA1 140123Z 27007KT 15/02 A3006 RMK A01 T01480024  RH  043%=      5-min Rain = 0
KVA1 140124Z 27007KT 15/02 A3006 RMK A01 T01480024  RH  043%=      5-min Rain = 0
KVA1 140125Z 27007KT 15/03 A3006 RMK A01 T01470025  RH  044%=      5-min Rain = 0
KVA1 140126Z 27007KT 15/03 A3006 RMK A01 T01460025  RH  044%=      5-min Rain = 0
KVA1 140127Z 27007KT 15/03 A3006 RMK A01 T01460025  RH  044%=      5-min Rain = 0
KVA1 140128Z 27007KT 15/03 A3006 RMK A01 T01460025  RH  044%=      5-min Rain = 0
KVA1 140129Z 26007KT 15/03 A3006 RMK A01 T01450025  RH  044%=      5-min Rain = 0
KVA1 140130Z 26007KT 15/03 A3006 RMK A01 T01450025  RH  044%=      5-min Rain = 0
KVA1 140131Z 26008KT 15/03 A3006 RMK A01 T01450025  RH  044%=      5-min Rain = 0
KVA1 140132Z 26007KT 15/03 A3006 RMK A01 T01450025  RH  044%=      5-min Rain = 0
KVA1 140133Z 26008KT 15/03 A3006 RMK A01 T01450025  RH  044%=      5-min Rain = 0
KVA1 140134Z 26007KT 15/03 A3006 RMK A01 T01450025  RH  044%=      5-min Rain = 0
KVA1 140135Z 26007KT 15/03 A3006 RMK A01 T01450025  RH  044%=      5-min Rain = 0
KVA1 140136Z 26006KT 15/02 A3006 RMK A01 T01450024  RH  044%=      5-min Rain = 0
KVA1 140137Z 26007KT 15/03 A3006 RMK A01 T01450025  RH  044%=      5-min Rain = 0
KVA1 140138Z 26006KT 15/02 A3006 RMK A01 T01450024  RH  044%=      5-min Rain = 0
KVA1 140139Z 26005KT 15/03 A3006 RMK A01 T01450025  RH  044%=      5-min Rain = 0
KVA1 140140Z 26005KT 15/03 A3006 RMK A01 T01450025  RH  044%=      5-min Rain = 0
KVA1 140141Z 25004KT 15/03 A3006 RMK A01 T01450025  RH  044%=      5-min Rain = 0
KVA1 140142Z 24004KT 15/03 A3006 RMK A01 T01450025  RH  045%=      5-min Rain = 0
KVA1 140143Z 24004KT 14/03 A3006 RMK A01 T01440026  RH  045%=      5-min Rain = 0
KVA1 140144Z 22004KT 14/03 A3006 RMK A01 T01430026  RH  045%=      5-min Rain = 0
KVA1 140145Z 22004KT 14/03 A3006 RMK A01 T01420026  RH  046%=      5-min Rain = 0
KVA1 140146Z 20004KT 14/03 A3006 RMK A01 T01410026  RH  046%=      5-min Rain = 0
KVA1 140147Z 20004KT 14/03 A3006 RMK A01 T01400027  RH  047%=      5-min Rain = 0
KVA1 140148Z 20005KT 14/03 A3006 RMK A01 T01380028  RH  047%=      5-min Rain = 0
KVA1 140149Z 19004KT 14/03 A3006 RMK A01 T01360028  RH  048%=      5-min Rain = 0
KVA1 140150Z 20004KT 13/03 A3006 RMK A01 T01340028  RH  049%=      5-min Rain = 0
KVA1 140151Z 20004KT 13/03 A3006 RMK A01 T01320029  RH  050%=      5-min Rain = 0
KVA1 140152Z 21005KT 13/03 A3006 RMK A01 T01300030  RH  051%=      5-min Rain = 0
KVA1 140153Z 21005KT 13/03 A3006 RMK A01 T01280029  RH  051%=      5-min Rain = 0
KVA1 140154Z 21005KT 13/03 A3006 RMK A01 T01270029  RH  051%=      5-min Rain = 0
KVA1 140155Z 22006KT 13/03 A3006 RMK A01 T01270029  RH  051%=      5-min Rain = 0
KVA1 140156Z 21005KT 13/03 A3006 RMK A01 T01270029  RH  051%=      5-min Rain = 0
KVA1 140157Z 19004KT 13/03 A3006 RMK A01 T01270029  RH  052%=      5-min Rain = 0
KVA1 140158Z 19005KT 13/03 A3006 RMK A01 T01260029  RH  052%=      5-min Rain = 0
KVA1 140159Z 19006KT 13/03 A3006 RMK A01 T01250028  RH  052%=      5-min Rain = 0
KVA1 140200Z 20007KT 13/03 A3006 RMK A01 T01250027  RH  051%=      5-min Rain = 0
KVA1 140201Z 20007KT 13/03 A3006 RMK A01 T01250027  RH  051%=      5-min Rain = 0
KVA1 140202Z 20007KT 13/03 A3006 RMK A01 T01250026  RH  051%=      5-min Rain = 0
KVA1 140203Z 20007KT 13/03 A3006 RMK A01 T01260026  RH  051%=      5-min Rain = 0
KVA1 140204Z 21007KT 13/03 A3006 RMK A01 T01260026  RH  050%=      5-min Rain = 0
KVA1 140205Z 20007KT 13/03 A3006 RMK A01 T01270026  RH  050%=      5-min Rain = 0
KVA1 140206Z 20007KT 13/03 A3006 RMK A01 T01270026  RH  050%=      5-min Rain = 0
KVA1 140207Z 20008KT 13/03 A3006 RMK A01 T01260027  RH  051%=      5-min Rain = 0
KVA1 140208Z 22007KT 13/03 A3006 RMK A01 T01270026  RH  050%=      5-min Rain = 0
KVA1 140209Z 22008KT 13/03 A3006 RMK A01 T01290026  RH  049%=      5-min Rain = 0
KVA1 140210Z 22008KT 13/03 A3006 RMK A01 T01330025  RH  048%=      5-min Rain = 0
KVA1 140211Z 22006KT 14/03 A3006 RMK A01 T01390026  RH  046%=      5-min Rain = 0
KVA1 140212Z 23007KT 14/03 A3006 RMK A01 T01410025  RH  046%=      5-min Rain = 0
KVA1 140213Z 23007KT 14/02 A3006 RMK A01 T01420024  RH  045%=      5-min Rain = 0
KVA1 140214Z 23006KT 14/02 A3006 RMK A01 T01430024  RH  045%=      5-min Rain = 0
KVA1 140215Z 22005KT 14/03 A3006 RMK A01 T01410025  RH  045%=      5-min Rain = 0
KVA1 140216Z 23006KT 14/03 A3006 RMK A01 T01380025  RH  047%=      5-min Rain = 0
KVA1 140217Z 23006KT 14/03 A3006 RMK A01 T01350025  RH  047%=      5-min Rain = 0
KVA1 140218Z 23007KT 13/03 A3006 RMK A01 T01340026  RH  048%=      5-min Rain = 0
KVA1 140219Z 23008KT 13/03 A3006 RMK A01 T01340025  RH  048%=      5-min Rain = 0
KVA1 140220Z 24007KT 14/03 A3006 RMK A01 T01350026  RH  048%=      5-min Rain = 0
KVA1 140221Z 24008KT 14/03 A3007 RMK A01 T01350026  RH  048%=      5-min Rain = 0
KVA1 140222Z 24007KT 14/03 A3007 RMK A01 T01370026  RH  047%=      5-min Rain = 0
KVA1 140223Z 23006KT 14/03 A3007 RMK A01 T01370027  RH  047%=      5-min Rain = 0
KVA1 140224Z 24008KT 14/03 A3007 RMK A01 T01360027  RH  048%=      5-min Rain = 0
KVA1 140225Z 23008KT 14/03 A3007 RMK A01 T01360027  RH  048%=      5-min Rain = 0
KVA1 140226Z 24008KT 14/03 A3007 RMK A01 T01350027  RH  048%=      5-min Rain = 0
KVA1 140227Z 24007KT 14/03 A3006 RMK A01 T01350027  RH  048%=      5-min Rain = 0
KVA1 140228Z 23007KT 13/03 A3006 RMK A01 T01340027  RH  049%=      5-min Rain = 0
KVA1 140229Z 24007KT 13/03 A3006 RMK A01 T01320028  RH  049%=      5-min Rain = 0
KVA1 140230Z 23007KT 13/03 A3006 RMK A01 T01300028  RH  050%=      5-min Rain = 0
KVA1 140231Z 24007KT 13/03 A3006 RMK A01 T01280028  RH  050%=      5-min Rain = 0
KVA1 140232Z 24008KT 13/03 A3006 RMK A01 T01280028  RH  051%=      5-min Rain = 0
KVA1 140233Z 24009KT 13/03 A3006 RMK A01 T01270028  RH  051%=      5-min Rain = 0
KVA1 140234Z 24008KT 13/03 A3006 RMK A01 T01270028  RH  051%=      5-min Rain = 0
KVA1 140235Z 24009KT 13/03 A3006 RMK A01 T01280028  RH  051%=      5-min Rain = 0
KVA1 140236Z 25009KT 13/03 A3006 RMK A01 T01290028  RH  050%=      5-min Rain = 0
KVA1 140237Z 25009KT 13/03 A3006 RMK A01 T01300028  RH  050%=      5-min Rain = 0
KVA1 140238Z 25010KT 13/03 A3006 RMK A01 T01300027  RH  050%=      5-min Rain = 0
KVA1 140239Z 26010KT 13/03 A3006 RMK A01 T01320027  RH  049%=      5-min Rain = 0
KVA1 140240Z 26011KT 13/03 A3006 RMK A01 T01340026  RH  048%=      5-min Rain = 0
KVA1 140241Z 26010KT 14/03 A3005 RMK A01 T01360026  RH  047%=      5-min Rain = 0
KVA1 140242Z 25007KT 14/03 A3006 RMK A01 T01370025  RH  047%=      5-min Rain = 0
KVA1 140243Z 25008KT 14/03 A3005 RMK A01 T01380025  RH  046%=      5-min Rain = 0
KVA1 140244Z 26009KT 14/03 A3006 RMK A01 T01380025  RH  046%=      5-min Rain = 0
KVA1 140245Z 25008KT 14/02 A3006 RMK A01 T01380024  RH  046%=      5-min Rain = 0
KVA1 140246Z 25007KT 14/02 A3006 RMK A01 T01390024  RH  046%=      5-min Rain = 0
KVA1 140247Z 25008KT 14/02 A3006 RMK A01 T01390024  RH  046%=      5-min Rain = 0
KVA1 140248Z 26007KT 14/02 A3006 RMK A01 T01380024  RH  046%=      5-min Rain = 0
KVA1 140249Z 26007KT 14/02 A3006 RMK A01 T01380024  RH  046%=      5-min Rain = 0
KVA1 140250Z 26008KT 14/02 A3006 RMK A01 T01380023  RH  046%=      5-min Rain = 0
KVA1 140251Z 26008KT 14/02 A3006 RMK A01 T01380022  RH  045%=      5-min Rain = 0
KVA1 140252Z 26008KT 14/02 A3007 RMK A01 T01390022  RH  045%=      5-min Rain = 0
KVA1 140253Z 26009KT 14/02 A3007 RMK A01 T01400022  RH  045%=      5-min Rain = 0
KVA1 140254Z 26008KT 14/02 A3007 RMK A01 T01400022  RH  045%=      5-min Rain = 0
KVA1 140255Z 26008KT 14/02 A3007 RMK A01 T01400022  RH  045%=      5-min Rain = 0
KVA1 140256Z 26009KT 14/02 A3007 RMK A01 T01400022  RH  045%=      5-min Rain = 0
KVA1 140257Z 26008KT 14/02 A3007 RMK A01 T01400022  RH  045%=      5-min Rain = 0
KVA1 140258Z 26008KT 14/02 A3007 RMK A01 T01390022  RH  045%=      5-min Rain = 0
KVA1 140259Z 25008KT 14/02 A3007 RMK A01 T01380022  RH  045%=      5-min Rain = 0
KVA1 140300Z 26007KT 14/02 A3007 RMK A01 T01370022  RH  046%=      5-min Rain = 0
KVA1 140301Z 26007KT 14/02 A3007 RMK A01 T01370022  RH  046%=      5-min Rain = 0
KVA1 140302Z 26007KT 14/02 A3007 RMK A01 T01360022  RH  046%=      5-min Rain = 0
KVA1 140303Z 26008KT 14/02 A3007 RMK A01 T01360023  RH  046%=      5-min Rain = 0
KVA1 140304Z 26007KT 14/02 A3007 RMK A01 T01350022  RH  046%=      5-min Rain = 0
KVA1 140305Z 26007KT 13/02 A3007 RMK A01 T01340022  RH  047%=      5-min Rain = 0
KVA1 140306Z 26007KT 13/02 A3007 RMK A01 T01340022  RH  047%=      5-min Rain = 0
KVA1 140307Z 26007KT 13/02 A3007 RMK A01 T01330023  RH  047%=      5-min Rain = 0
KVA1 140308Z 26007KT 13/02 A3007 RMK A01 T01330022  RH  047%=      5-min Rain = 0
KVA1 140309Z 26008KT 13/02 A3007 RMK A01 T01320022  RH  047%=      5-min Rain = 0
KVA1 140310Z 26008KT 13/02 A3007 RMK A01 T01330021  RH  047%=      5-min Rain = 0
KVA1 140311Z 26008KT 13/02 A3007 RMK A01 T01330021  RH  047%=      5-min Rain = 0
KVA1 140312Z 26008KT 13/02 A3007 RMK A01 T01330021  RH  046%=      5-min Rain = 0
KVA1 140313Z 26008KT 13/02 A3007 RMK A01 T01340021  RH  046%=      5-min Rain = 0
KVA1 140314Z 26008KT 13/02 A3007 RMK A01 T01340021  RH  046%=      5-min Rain = 0
KVA1 140315Z 26007KT 13/02 A3007 RMK A01 T01340021  RH  046%=      5-min Rain = 0
KVA1 140316Z 26008KT 13/02 A3007 RMK A01 T01340021  RH  046%=      5-min Rain = 0
KVA1 140317Z 26007KT 13/02 A3007 RMK A01 T01340021  RH  046%=      5-min Rain = 0
KVA1 140318Z 26007KT 13/02 A3007 RMK A01 T01340021  RH  046%=      5-min Rain = 0
KVA1 140319Z 25006KT 13/02 A3007 RMK A01 T01330020  RH  046%=      5-min Rain = 0
KVA1 140320Z 25006KT 13/02 A3007 RMK A01 T01330020  RH  046%=      5-min Rain = 0
KVA1 140321Z 25005KT 13/02 A3007 RMK A01 T01330020  RH  046%=      5-min Rain = 0
KVA1 140322Z 25004KT 13/02 A3007 RMK A01 T01330020  RH  047%=      5-min Rain = 0
KVA1 140323Z 24004KT 13/02 A3007 RMK A01 T01320020  RH  047%=      5-min Rain = 0
KVA1 140324Z 24003KT 13/02 A3007 RMK A01 T01320021  RH  047%=      5-min Rain = 0
KVA1 140325Z 22001KT 13/02 A3007 RMK A01 T01310022  RH  047%=      5-min Rain = 0
KVA1 140326Z 23002KT 13/03 A3007 RMK A01 T01290026  RH  050%=      5-min Rain = 0
KVA1 140327Z 21001KT 12/03 A3007 RMK A01 T01240027  RH  051%=      5-min Rain = 0
KVA1 140328Z 18002KT 12/03 A3007 RMK A01 T01200028  RH  053%=      5-min Rain = 0
KVA1 140329Z 20001KT 12/03 A3007 RMK A01 T01180029  RH  054%=      5-min Rain = 0
KVA1 140330Z 19001KT 12/03 A3007 RMK A01 T01150028  RH  055%=      5-min Rain = 0
KVA1 140331Z 16002KT 11/03 A3007 RMK A01 T01130028  RH  056%=      5-min Rain = 0
KVA1 140332Z 15002KT 11/03 A3007 RMK A01 T01110028  RH  057%=      5-min Rain = 0
KVA1 140333Z 13002KT 11/03 A3007 RMK A01 T01090028  RH  057%=      5-min Rain = 0
KVA1 140334Z 11002KT 11/03 A3007 RMK A01 T01080028  RH  058%=      5-min Rain = 0
KVA1 140335Z 12003KT 11/03 A3007 RMK A01 T01060029  RH  059%=      5-min Rain = 0
KVA1 140336Z 12004KT 10/03 A3007 RMK A01 T01040029  RH  060%=      5-min Rain = 0
KVA1 140337Z 12004KT 10/03 A3007 RMK A01 T01020029  RH  060%=      5-min Rain = 0
KVA1 140338Z 11005KT 10/03 A3007 RMK A01 T01010029  RH  061%=      5-min Rain = 0
KVA1 140339Z 12006KT 10/03 A3007 RMK A01 T01000029  RH  062%=      5-min Rain = 0
KVA1 140340Z 12006KT 10/03 A3007 RMK A01 T00980030  RH  062%=      5-min Rain = 0
KVA1 140341Z 13006KT 10/03 A3007 RMK A01 T00970030  RH  063%=      5-min Rain = 0
KVA1 140342Z 13006KT 10/03 A3007 RMK A01 T00960031  RH  064%=      5-min Rain = 0
KVA1 140343Z 14006KT 10/03 A3007 RMK A01 T00950030  RH  064%=      5-min Rain = 0
KVA1 140344Z 14005KT 09/03 A3008 RMK A01 T00940030  RH  064%=      5-min Rain = 0
KVA1 140345Z 13004KT 09/03 A3008 RMK A01 T00940031  RH  064%=      5-min Rain = 0
KVA1 140346Z 14002KT 09/03 A3008 RMK A01 T00940031  RH  065%=      5-min Rain = 0
KVA1 140347Z 15001KT 09/03 A3008 RMK A01 T00930031  RH  065%=      5-min Rain = 0
KVA1 140348Z 14003KT 09/03 A3008 RMK A01 T00930031  RH  065%=      5-min Rain = 0
KVA1 140349Z 17003KT 09/03 A3008 RMK A01 T00920031  RH  065%=      5-min Rain = 0
KVA1 140350Z 18002KT 09/03 A3008 RMK A01 T00910031  RH  066%=      5-min Rain = 0
KVA1 140351Z 16003KT 09/03 A3008 RMK A01 T00910031  RH  066%=      5-min Rain = 0
KVA1 140352Z 16005KT 09/03 A3008 RMK A01 T00910031  RH  066%=      5-min Rain = 0
KVA1 140353Z 16006KT 09/03 A3008 RMK A01 T00910031  RH  066%=      5-min Rain = 0
KVA1 140354Z 16006KT 09/03 A3008 RMK A01 T00910030  RH  066%=      5-min Rain = 0
KVA1 140355Z 15006KT 09/03 A3007 RMK A01 T00920030  RH  065%=      5-min Rain = 0
KVA1 140356Z 16006KT 09/03 A3007 RMK A01 T00920030  RH  065%=      5-min Rain = 0
KVA1 140357Z 16007KT 09/03 A3007 RMK A01 T00920030  RH  065%=      5-min Rain = 0
KVA1 140358Z 16007KT 09/03 A3007 RMK A01 T00930030  RH  065%=      5-min Rain = 0
KVA1 140359Z 17007KT 09/03 A3007 RMK A01 T00930030  RH  065%=      5-min Rain = 0
KVA1 140400Z 17006KT 09/03 A3007 RMK A01 T00940030  RH  064%=      5-min Rain = 0
KVA1 140401Z 18005KT 10/03 A3007 RMK A01 T00950030  RH  064%=      5-min Rain = 0
KVA1 140402Z 18004KT 10/03 A3008 RMK A01 T00950031  RH  064%=      5-min Rain = 0
KVA1 140403Z 19005KT 10/03 A3007 RMK A01 T00950031  RH  064%=      5-min Rain = 0
KVA1 140404Z 19005KT 10/03 A3007 RMK A01 T00950031  RH  064%=      5-min Rain = 0
KVA1 140405Z 18006KT 10/03 A3007 RMK A01 T00950031  RH  064%=      5-min Rain = 0
KVA1 140406Z 18007KT 10/03 A3007 RMK A01 T00950031  RH  064%=      5-min Rain = 0
KVA1 140407Z 18007KT 09/03 A3007 RMK A01 T00940030  RH  065%=      5-min Rain = 0
KVA1 140408Z 18008KT 09/03 A3007 RMK A01 T00930030  RH  065%=      5-min Rain = 0
KVA1 140409Z 19007KT 09/03 A3007 RMK A01 T00940030  RH  065%=      5-min Rain = 0
KVA1 140410Z 19007KT 10/03 A3007 RMK A01 T00960031  RH  064%=      5-min Rain = 0
KVA1 140411Z 20008KT 10/03 A3007 RMK A01 T00970031  RH  063%=      5-min Rain = 0
KVA1 140412Z 20007KT 10/03 A3007 RMK A01 T00970031  RH  063%=      5-min Rain = 0
KVA1 140413Z 20007KT 10/03 A3007 RMK A01 T00980031  RH  063%=      5-min Rain = 0
KVA1 140414Z 20007KT 10/03 A3007 RMK A01 T00970031  RH  063%=      5-min Rain = 0
KVA1 140415Z 20007KT 10/03 A3007 RMK A01 T00980032  RH  064%=      5-min Rain = 0
KVA1 140416Z 20007KT 10/03 A3007 RMK A01 T00970032  RH  064%=      5-min Rain = 0
KVA1 140417Z 21007KT 10/03 A3007 RMK A01 T00970032  RH  064%=      5-min Rain = 0
KVA1 140418Z 21006KT 10/03 A3007 RMK A01 T00970032  RH  064%=      5-min Rain = 0
KVA1 140419Z 22007KT 10/03 A3007 RMK A01 T00970032  RH  064%=      5-min Rain = 0
KVA1 140420Z 22007KT 10/03 A3008 RMK A01 T00970032  RH  064%=      5-min Rain = 0
KVA1 140421Z 22007KT 10/03 A3007 RMK A01 T00960032  RH  064%=      5-min Rain = 0
KVA1 140422Z 22007KT 10/03 A3007 RMK A01 T00950032  RH  065%=      5-min Rain = 0
KVA1 140423Z 22007KT 10/03 A3007 RMK A01 T00950032  RH  065%=      5-min Rain = 0
KVA1 140424Z 22007KT 10/03 A3007 RMK A01 T00950032  RH  065%=      5-min Rain = 0
KVA1 140425Z 21007KT 09/03 A3007 RMK A01 T00940032  RH  065%=      5-min Rain = 0
KVA1 140426Z 22008KT 09/03 A3007 RMK A01 T00940032  RH  066%=      5-min Rain = 0
KVA1 140427Z 22008KT 09/03 A3007 RMK A01 T00930032  RH  066%=      5-min Rain = 0
KVA1 140428Z 23008KT 09/03 A3007 RMK A01 T00930032  RH  066%=      5-min Rain = 0
KVA1 140429Z 23008KT 09/03 A3007 RMK A01 T00930032  RH  066%=      5-min Rain = 0
KVA1 140430Z 23007KT 09/03 A3007 RMK A01 T00930032  RH  066%=      5-min Rain = 0
KVA1 140431Z 23007KT 09/03 A3007 RMK A01 T00930033  RH  066%=      5-min Rain = 0
KVA1 140432Z 23007KT 09/03 A3007 RMK A01 T00930032  RH  066%=      5-min Rain = 0
KVA1 140433Z 22007KT 09/03 A3007 RMK A01 T00930032  RH  066%=      5-min Rain = 0
KVA1 140434Z 22007KT 09/03 A3006 RMK A01 T00930033  RH  066%=      5-min Rain = 0
KVA1 140435Z 22006KT 09/03 A3006 RMK A01 T00920033  RH  066%=      5-min Rain = 0
KVA1 140436Z 23006KT 09/03 A3006 RMK A01 T00920033  RH  066%=      5-min Rain = 0
KVA1 140437Z 23006KT 09/03 A3006 RMK A01 T00910032  RH  067%=      5-min Rain = 0
KVA1 140438Z 24006KT 09/03 A3006 RMK A01 T00910033  RH  067%=      5-min Rain = 0
KVA1 140439Z 24006KT 09/03 A3006 RMK A01 T00900032  RH  067%=      5-min Rain = 0
KVA1 140440Z 23005KT 09/03 A3007 RMK A01 T00890032  RH  067%=      5-min Rain = 0
KVA1 140441Z 23005KT 09/03 A3007 RMK A01 T00890033  RH  068%=      5-min Rain = 0
KVA1 140442Z 24005KT 09/03 A3007 RMK A01 T00890032  RH  068%=      5-min Rain = 0
KVA1 140443Z 24005KT 09/03 A3007 RMK A01 T00890032  RH  068%=      5-min Rain = 0
KVA1 140444Z 23005KT 09/03 A3006 RMK A01 T00890032  RH  068%=      5-min Rain = 0
KVA1 140445Z 24006KT 09/03 A3006 RMK A01 T00880032  RH  068%=      5-min Rain = 0
KVA1 140446Z 23005KT 09/03 A3006 RMK A01 T00880031  RH  068%=      5-min Rain = 0
KVA1 140447Z 23005KT 09/03 A3006 RMK A01 T00880032  RH  068%=      5-min Rain = 0
KVA1 140448Z 23006KT 09/03 A3006 RMK A01 T00880031  RH  067%=      5-min Rain = 0
KVA1 140449Z 23005KT 09/03 A3006 RMK A01 T00880032  RH  067%=      5-min Rain = 0
KVA1 140450Z 22005KT 09/03 A3006 RMK A01 T00880031  RH  067%=      5-min Rain = 0
KVA1 140451Z 22005KT 09/03 A3006 RMK A01 T00880031  RH  068%=      5-min Rain = 0
KVA1 140452Z 21005KT 09/03 A3006 RMK A01 T00870031  RH  068%=      5-min Rain = 0
KVA1 140453Z 21005KT 09/03 A3006 RMK A01 T00870031  RH  068%=      5-min Rain = 0
KVA1 140454Z 21006KT 09/03 A3006 RMK A01 T00860031  RH  068%=      5-min Rain = 0
KVA1 140455Z 21006KT 09/03 A3006 RMK A01 T00860031  RH  069%=      5-min Rain = 0
KVA1 140456Z 21006KT 09/03 A3006 RMK A01 T00860031  RH  069%=      5-min Rain = 0
KVA1 140457Z 22005KT 09/03 A3006 RMK A01 T00850031  RH  069%=      5-min Rain = 0
KVA1 140458Z 22005KT 09/03 A3006 RMK A01 T00850031  RH  069%=      5-min Rain = 0
KVA1 140459Z 22005KT 08/03 A3006 RMK A01 T00840031  RH  069%=      5-min Rain = 0
KVA1 140500Z 22006KT 08/03 A3006 RMK A01 T00840031  RH  069%=      5-min Rain = 0
KVA1 140501Z 22006KT 08/03 A3006 RMK A01 T00840031  RH  069%=      5-min Rain = 0
KVA1 140502Z 22006KT 08/03 A3006 RMK A01 T00840031  RH  069%=      5-min Rain = 0
KVA1 140503Z 22006KT 08/03 A3006 RMK A01 T00840031  RH  069%=      5-min Rain = 0
KVA1 140504Z 23006KT 08/03 A3006 RMK A01 T00840030  RH  069%=      5-min Rain = 0
KVA1 140505Z 23006KT 09/03 A3006 RMK A01 T00850030  RH  068%=      5-min Rain = 0
KVA1 140506Z 23005KT 09/03 A3006 RMK A01 T00860030  RH  068%=      5-min Rain = 0
KVA1 140507Z 23005KT 09/03 A3006 RMK A01 T00860030  RH  068%=      5-min Rain = 0
KVA1 140508Z 24005KT 09/03 A3006 RMK A01 T00860030  RH  068%=      5-min Rain = 0
KVA1 140509Z 24005KT 09/03 A3006 RMK A01 T00850030  RH  068%=      5-min Rain = 0
KVA1 140510Z 24006KT 08/03 A3006 RMK A01 T00840029  RH  068%=      5-min Rain = 0
KVA1 140511Z 24006KT 08/03 A3006 RMK A01 T00830029  RH  069%=      5-min Rain = 0
KVA1 140512Z 24006KT 08/03 A3006 RMK A01 T00820029  RH  070%=      5-min Rain = 0
KVA1 140513Z 24006KT 08/03 A3006 RMK A01 T00820030  RH  070%=      5-min Rain = 0
KVA1 140514Z 24006KT 08/03 A3006 RMK A01 T00820030  RH  070%=      5-min Rain = 0
KVA1 140515Z 24006KT 08/03 A3006 RMK A01 T00820029  RH  069%=      5-min Rain = 0
KVA1 140516Z 24007KT 08/03 A3006 RMK A01 T00820030  RH  070%=      5-min Rain = 0
KVA1 140517Z 25007KT 08/03 A3006 RMK A01 T00810030  RH  070%=      5-min Rain = 0
KVA1 140518Z 25006KT 08/03 A3006 RMK A01 T00800030  RH  070%=      5-min Rain = 0
KVA1 140519Z 25007KT 08/03 A3005 RMK A01 T00800029  RH  070%=      5-min Rain = 0
KVA1 140520Z 25007KT 08/03 A3005 RMK A01 T00790030  RH  071%=      5-min Rain = 0
KVA1 140521Z 26007KT 08/03 A3005 RMK A01 T00800030  RH  071%=      5-min Rain = 0
KVA1 140522Z 26007KT 08/03 A3005 RMK A01 T00790029  RH  071%=      5-min Rain = 0
KVA1 140523Z 26007KT 08/03 A3005 RMK A01 T00790029  RH  070%=      5-min Rain = 0
KVA1 140524Z 26007KT 08/03 A3005 RMK A01 T00790029  RH  070%=      5-min Rain = 0
KVA1 140525Z 25007KT 08/03 A3005 RMK A01 T00790028  RH  070%=      5-min Rain = 0
KVA1 140526Z 25006KT 08/03 A3005 RMK A01 T00790028  RH  070%=      5-min Rain = 0
KVA1 140527Z 26007KT 08/03 A3005 RMK A01 T00800028  RH  070%=      5-min Rain = 0
KVA1 140528Z 26006KT 08/03 A3005 RMK A01 T00810028  RH  069%=      5-min Rain = 0
KVA1 140529Z 26006KT 08/03 A3005 RMK A01 T00810027  RH  069%=      5-min Rain = 0
KVA1 140530Z 26006KT 08/03 A3005 RMK A01 T00820027  RH  068%=      5-min Rain = 0
KVA1 140531Z 26007KT 08/03 A3005 RMK A01 T00830027  RH  068%=      5-min Rain = 0
KVA1 140532Z 26007KT 08/03 A3005 RMK A01 T00840027  RH  067%=      5-min Rain = 0
KVA1 140533Z 26007KT 09/03 A3005 RMK A01 T00850026  RH  067%=      5-min Rain = 0
KVA1 140534Z 27007KT 09/03 A3005 RMK A01 T00850026  RH  066%=      5-min Rain = 0
KVA1 140535Z 27007KT 09/03 A3005 RMK A01 T00850026  RH  066%=      5-min Rain = 0
KVA1 140536Z 26007KT 09/03 A3005 RMK A01 T00860027  RH  066%=      5-min Rain = 0
KVA1 140537Z 26007KT 09/03 A3005 RMK A01 T00860026  RH  066%=      5-min Rain = 0
KVA1 140538Z 25007KT 09/03 A3005 RMK A01 T00860026  RH  066%=      5-min Rain = 0
KVA1 140539Z 25008KT 09/03 A3005 RMK A01 T00870026  RH  066%=      5-min Rain = 0
KVA1 140540Z 25009KT 09/03 A3005 RMK A01 T00870026  RH  065%=      5-min Rain = 0
KVA1 140541Z 25009KT 09/03 A3005 RMK A01 T00880026  RH  065%=      5-min Rain = 0
KVA1 140542Z 25008KT 09/03 A3005 RMK A01 T00890026  RH  065%=      5-min Rain = 0
KVA1 140543Z 25008KT 09/03 A3005 RMK A01 T00900025  RH  064%=      5-min Rain = 0
KVA1 140544Z 25008KT 09/03 A3005 RMK A01 T00910026  RH  064%=      5-min Rain = 0
KVA1 140545Z 25008KT 09/03 A3005 RMK A01 T00910025  RH  063%=      5-min Rain = 0
KVA1 140546Z 25008KT 09/03 A3005 RMK A01 T00920025  RH  063%=      5-min Rain = 0
KVA1 140547Z 25008KT 09/03 A3005 RMK A01 T00920025  RH  063%=      5-min Rain = 0
KVA1 140548Z 25008KT 09/03 A3005 RMK A01 T00920025  RH  063%=      5-min Rain = 0
KVA1 140549Z 25008KT 09/03 A3005 RMK A01 T00920025  RH  063%=      5-min Rain = 0
KVA1 140550Z 25008KT 09/03 A3005 RMK A01 T00920025  RH  063%=      5-min Rain = 0
KVA1 140551Z 25007KT 09/03 A3005 RMK A01 T00930025  RH  062%=      5-min Rain = 0
KVA1 140552Z 25007KT 09/03 A3005 RMK A01 T00940025  RH  062%=      5-min Rain = 0
KVA1 140553Z 24008KT 09/03 A3004 RMK A01 T00940025  RH  062%=      5-min Rain = 0
KVA1 140554Z 24008KT 09/03 A3004 RMK A01 T00940025  RH  062%=      5-min Rain = 0
KVA1 140555Z 24008KT 09/03 A3004 RMK A01 T00940025  RH  062%=      5-min Rain = 0
KVA1 140556Z 24007KT 10/03 A3004 RMK A01 T00950025  RH  062%=      5-min Rain = 0
KVA1 140557Z 25007KT 10/03 A3004 RMK A01 T00950025  RH  062%=      5-min Rain = 0
KVA1 140558Z 25007KT 09/03 A3004 RMK A01 T00940025  RH  062%=      5-min Rain = 0
KVA1 140559Z 25007KT 09/03 A3004 RMK A01 T00930025  RH  063%=      5-min Rain = 0

Page generated in 0.0694 seconds.